<?xml version="1.0" encoding="UTF-8" standalone="no" ?>
<gpx xmlns="http://www.topografix.com/GPX/1/1" xmlns:xsi="http://www.w3.org/2001/XMLSchema-instance" xsi:schemaLocation="http://www.topografix.com/GPX/1/1 http://www.topografix.com/GPX/1/1/gpx.xsd" version="1.1" creator="VisuGPX - https://www.visugpx.com">
  <metadata>
    <name>CCC 1 Cuiseaux France 56 490</name>
    <desc><![CDATA[Randonnée au départ de Cuiseaux France]]></desc>
  </metadata>
  <trk>
    <name><![CDATA[9047775-st jean 2]]></name>
    <trkseg>
      <trkpt lat="46.49535" lon="5.38792">
        <ele>278.9</ele>
        <time>2019-04-29T08:34:23Z</time>
      </trkpt>
      <trkpt lat="46.49422" lon="5.38769">
        <ele>280</ele>
        <time>2019-04-29T08:35:23Z</time>
      </trkpt>
      <trkpt lat="46.49315" lon="5.38737">
        <ele>280</ele>
        <time>2019-04-29T08:36:23Z</time>
      </trkpt>
      <trkpt lat="46.49281" lon="5.38727">
        <ele>279</ele>
        <time>2019-04-29T08:37:23Z</time>
      </trkpt>
      <trkpt lat="46.49249" lon="5.38711">
        <ele>277</ele>
        <time>2019-04-29T08:38:23Z</time>
      </trkpt>
      <trkpt lat="46.49223" lon="5.38695">
        <ele>277</ele>
        <time>2019-04-29T08:39:23Z</time>
      </trkpt>
      <trkpt lat="46.4921" lon="5.38666">
        <ele>275</ele>
        <time>2019-04-29T08:40:23Z</time>
      </trkpt>
      <trkpt lat="46.49208" lon="5.3864">
        <ele>274</ele>
        <time>2019-04-29T08:41:23Z</time>
      </trkpt>
      <trkpt lat="46.49209" lon="5.38611">
        <ele>274</ele>
        <time>2019-04-29T08:42:23Z</time>
      </trkpt>
      <trkpt lat="46.49187" lon="5.38588">
        <ele>273</ele>
        <time>2019-04-29T08:43:23Z</time>
      </trkpt>
      <trkpt lat="46.49158" lon="5.38494">
        <ele>268</ele>
        <time>2019-04-29T08:44:23Z</time>
      </trkpt>
      <trkpt lat="46.49123" lon="5.38374">
        <ele>262</ele>
        <time>2019-04-29T08:45:23Z</time>
      </trkpt>
      <trkpt lat="46.49054" lon="5.38155">
        <ele>254</ele>
        <time>2019-04-29T08:46:23Z</time>
      </trkpt>
      <trkpt lat="46.49005" lon="5.37994">
        <ele>251</ele>
        <time>2019-04-29T08:47:23Z</time>
      </trkpt>
      <trkpt lat="46.48955" lon="5.3783">
        <ele>247</ele>
        <time>2019-04-29T08:48:23Z</time>
      </trkpt>
      <trkpt lat="46.48923" lon="5.37725">
        <ele>247</ele>
        <time>2019-04-29T08:49:23Z</time>
      </trkpt>
      <trkpt lat="46.4889" lon="5.37629">
        <ele>251</ele>
        <time>2019-04-29T08:50:23Z</time>
      </trkpt>
      <trkpt lat="46.4888" lon="5.3763">
        <ele>251</ele>
        <time>2019-04-29T08:51:23Z</time>
      </trkpt>
      <trkpt lat="46.48865" lon="5.37628">
        <ele>252.1</ele>
        <time>2019-04-29T08:52:23Z</time>
      </trkpt>
      <trkpt lat="46.48859" lon="5.37605">
        <ele>252</ele>
        <time>2019-04-29T08:53:23Z</time>
      </trkpt>
      <trkpt lat="46.48846" lon="5.37555">
        <ele>250</ele>
        <time>2019-04-29T08:54:23Z</time>
      </trkpt>
      <trkpt lat="46.48834" lon="5.37524">
        <ele>249</ele>
        <time>2019-04-29T08:55:23Z</time>
      </trkpt>
      <trkpt lat="46.48773" lon="5.3744">
        <ele>252</ele>
        <time>2019-04-29T08:56:23Z</time>
      </trkpt>
      <trkpt lat="46.48712" lon="5.37357">
        <ele>252</ele>
        <time>2019-04-29T08:57:23Z</time>
      </trkpt>
      <trkpt lat="46.48638" lon="5.37261">
        <ele>253</ele>
        <time>2019-04-29T08:58:23Z</time>
      </trkpt>
      <trkpt lat="46.48566" lon="5.37168">
        <ele>254</ele>
        <time>2019-04-29T08:59:23Z</time>
      </trkpt>
      <trkpt lat="46.4853" lon="5.37125">
        <ele>253.7</ele>
        <time>2019-04-29T09:00:23Z</time>
      </trkpt>
      <trkpt lat="46.48499" lon="5.37086">
        <ele>255</ele>
        <time>2019-04-29T09:01:23Z</time>
      </trkpt>
      <trkpt lat="46.48435" lon="5.37018">
        <ele>258.8</ele>
        <time>2019-04-29T09:02:23Z</time>
      </trkpt>
      <trkpt lat="46.48421" lon="5.37008">
        <ele>259</ele>
        <time>2019-04-29T09:03:23Z</time>
      </trkpt>
      <trkpt lat="46.48406" lon="5.37007">
        <ele>261</ele>
        <time>2019-04-29T09:04:23Z</time>
      </trkpt>
      <trkpt lat="46.48385" lon="5.37019">
        <ele>261</ele>
        <time>2019-04-29T09:05:23Z</time>
      </trkpt>
      <trkpt lat="46.48361" lon="5.37041">
        <ele>262.1</ele>
        <time>2019-04-29T09:06:23Z</time>
      </trkpt>
      <trkpt lat="46.48348" lon="5.37045">
        <ele>262</ele>
        <time>2019-04-29T09:07:23Z</time>
      </trkpt>
      <trkpt lat="46.48295" lon="5.37066">
        <ele>267.6</ele>
        <time>2019-04-29T09:08:23Z</time>
      </trkpt>
      <trkpt lat="46.48297" lon="5.37035">
        <ele>267.2</ele>
        <time>2019-04-29T09:09:23Z</time>
      </trkpt>
      <trkpt lat="46.48298" lon="5.36998">
        <ele>265</ele>
        <time>2019-04-29T09:11:23Z</time>
      </trkpt>
      <trkpt lat="46.48295" lon="5.36916">
        <ele>261</ele>
        <time>2019-04-29T09:12:23Z</time>
      </trkpt>
      <trkpt lat="46.48292" lon="5.36899">
        <ele>260</ele>
        <time>2019-04-29T09:14:23Z</time>
      </trkpt>
      <trkpt lat="46.48282" lon="5.36866">
        <ele>259</ele>
        <time>2019-04-29T09:15:23Z</time>
      </trkpt>
      <trkpt lat="46.48271" lon="5.36845">
        <ele>257</ele>
        <time>2019-04-29T09:16:23Z</time>
      </trkpt>
      <trkpt lat="46.4826" lon="5.36829">
        <ele>256</ele>
        <time>2019-04-29T09:17:23Z</time>
      </trkpt>
      <trkpt lat="46.48099" lon="5.36692">
        <ele>248</ele>
        <time>2019-04-29T09:18:23Z</time>
      </trkpt>
      <trkpt lat="46.48164" lon="5.36623">
        <ele>248</ele>
        <time>2019-04-29T09:19:23Z</time>
      </trkpt>
      <trkpt lat="46.4819" lon="5.36592">
        <ele>246</ele>
        <time>2019-04-29T09:20:23Z</time>
      </trkpt>
      <trkpt lat="46.48196" lon="5.36599">
        <ele>246</ele>
        <time>2019-04-29T09:21:23Z</time>
      </trkpt>
      <trkpt lat="46.48203" lon="5.36601">
        <ele>246</ele>
        <time>2019-04-29T09:22:23Z</time>
      </trkpt>
      <trkpt lat="46.48211" lon="5.36599">
        <ele>246</ele>
        <time>2019-04-29T09:23:23Z</time>
      </trkpt>
      <trkpt lat="46.48217" lon="5.36592">
        <ele>245</ele>
        <time>2019-04-29T09:24:23Z</time>
      </trkpt>
      <trkpt lat="46.4822" lon="5.36581">
        <ele>245</ele>
        <time>2019-04-29T09:25:23Z</time>
      </trkpt>
      <trkpt lat="46.4822" lon="5.36572">
        <ele>244</ele>
        <time>2019-04-29T09:26:23Z</time>
      </trkpt>
      <trkpt lat="46.48217" lon="5.36563">
        <ele>244</ele>
        <time>2019-04-29T09:27:23Z</time>
      </trkpt>
      <trkpt lat="46.48364" lon="5.36404">
        <ele>238</ele>
        <time>2019-04-29T09:28:23Z</time>
      </trkpt>
      <trkpt lat="46.48398" lon="5.3637">
        <ele>237</ele>
        <time>2019-04-29T09:29:23Z</time>
      </trkpt>
      <trkpt lat="46.4841" lon="5.3636">
        <ele>237</ele>
        <time>2019-04-29T09:30:23Z</time>
      </trkpt>
      <trkpt lat="46.48428" lon="5.36351">
        <ele>237</ele>
        <time>2019-04-29T09:31:23Z</time>
      </trkpt>
      <trkpt lat="46.48526" lon="5.36333">
        <ele>236</ele>
        <time>2019-04-29T09:32:23Z</time>
      </trkpt>
      <trkpt lat="46.48608" lon="5.36321">
        <ele>233</ele>
        <time>2019-04-29T09:33:23Z</time>
      </trkpt>
      <trkpt lat="46.48622" lon="5.36311">
        <ele>232</ele>
        <time>2019-04-29T09:34:23Z</time>
      </trkpt>
      <trkpt lat="46.4863" lon="5.36287">
        <ele>231</ele>
        <time>2019-04-29T09:35:23Z</time>
      </trkpt>
      <trkpt lat="46.48633" lon="5.36267">
        <ele>230</ele>
        <time>2019-04-29T09:36:23Z</time>
      </trkpt>
      <trkpt lat="46.48636" lon="5.36241">
        <ele>228</ele>
        <time>2019-04-29T09:37:23Z</time>
      </trkpt>
      <trkpt lat="46.48642" lon="5.36159">
        <ele>228</ele>
        <time>2019-04-29T09:38:23Z</time>
      </trkpt>
      <trkpt lat="46.48647" lon="5.36128">
        <ele>228</ele>
        <time>2019-04-29T09:39:23Z</time>
      </trkpt>
      <trkpt lat="46.48668" lon="5.36032">
        <ele>231</ele>
        <time>2019-04-29T09:40:23Z</time>
      </trkpt>
      <trkpt lat="46.48676" lon="5.35989">
        <ele>232</ele>
        <time>2019-04-29T09:41:23Z</time>
      </trkpt>
      <trkpt lat="46.48684" lon="5.35925">
        <ele>232</ele>
        <time>2019-04-29T09:42:23Z</time>
      </trkpt>
      <trkpt lat="46.48694" lon="5.35895">
        <ele>231</ele>
        <time>2019-04-29T09:43:23Z</time>
      </trkpt>
      <trkpt lat="46.48727" lon="5.35813">
        <ele>229</ele>
        <time>2019-04-29T09:45:23Z</time>
      </trkpt>
      <trkpt lat="46.48785" lon="5.35681">
        <ele>232</ele>
        <time>2019-04-29T09:46:23Z</time>
      </trkpt>
      <trkpt lat="46.48785" lon="5.35681">
        <ele>232</ele>
        <time>2019-04-29T09:47:23Z</time>
      </trkpt>
      <trkpt lat="46.48999" lon="5.35197">
        <ele>232</ele>
        <time>2019-04-29T09:48:23Z</time>
      </trkpt>
      <trkpt lat="46.49026" lon="5.35134">
        <ele>232</ele>
        <time>2019-04-29T09:49:23Z</time>
      </trkpt>
      <trkpt lat="46.49033" lon="5.35116">
        <ele>231.8</ele>
        <time>2019-04-29T09:50:23Z</time>
      </trkpt>
      <trkpt lat="46.49039" lon="5.35112">
        <ele>232</ele>
        <time>2019-04-29T09:51:23Z</time>
      </trkpt>
      <trkpt lat="46.49074" lon="5.35079">
        <ele>230</ele>
        <time>2019-04-29T09:52:23Z</time>
      </trkpt>
      <trkpt lat="46.49118" lon="5.35044">
        <ele>231.9</ele>
        <time>2019-04-29T09:53:23Z</time>
      </trkpt>
      <trkpt lat="46.49167" lon="5.34997">
        <ele>234</ele>
        <time>2019-04-29T09:54:23Z</time>
      </trkpt>
      <trkpt lat="46.49192" lon="5.34971">
        <ele>234</ele>
        <time>2019-04-29T09:55:23Z</time>
      </trkpt>
      <trkpt lat="46.49255" lon="5.34874">
        <ele>234</ele>
        <time>2019-04-29T09:56:23Z</time>
      </trkpt>
      <trkpt lat="46.49264" lon="5.3486">
        <ele>233</ele>
        <time>2019-04-29T09:57:23Z</time>
      </trkpt>
      <trkpt lat="46.49274" lon="5.34851">
        <ele>233</ele>
        <time>2019-04-29T09:58:23Z</time>
      </trkpt>
      <trkpt lat="46.49289" lon="5.3484">
        <ele>233</ele>
        <time>2019-04-29T09:59:23Z</time>
      </trkpt>
      <trkpt lat="46.49302" lon="5.34835">
        <ele>233</ele>
        <time>2019-04-29T10:00:23Z</time>
      </trkpt>
      <trkpt lat="46.49372" lon="5.34821">
        <ele>233</ele>
        <time>2019-04-29T10:01:23Z</time>
      </trkpt>
      <trkpt lat="46.49396" lon="5.34812">
        <ele>234</ele>
        <time>2019-04-29T10:02:23Z</time>
      </trkpt>
      <trkpt lat="46.49412" lon="5.34803">
        <ele>234</ele>
        <time>2019-04-29T10:03:23Z</time>
      </trkpt>
      <trkpt lat="46.4947" lon="5.34744">
        <ele>230</ele>
        <time>2019-04-29T10:04:23Z</time>
      </trkpt>
      <trkpt lat="46.49568" lon="5.34631">
        <ele>221</ele>
        <time>2019-04-29T10:05:23Z</time>
      </trkpt>
      <trkpt lat="46.49613" lon="5.34564">
        <ele>219</ele>
        <time>2019-04-29T10:06:23Z</time>
      </trkpt>
      <trkpt lat="46.49628" lon="5.34545">
        <ele>219</ele>
        <time>2019-04-29T10:07:23Z</time>
      </trkpt>
      <trkpt lat="46.49639" lon="5.34538">
        <ele>220</ele>
        <time>2019-04-29T10:08:23Z</time>
      </trkpt>
      <trkpt lat="46.49639" lon="5.34538">
        <ele>220</ele>
        <time>2019-04-29T10:09:23Z</time>
      </trkpt>
      <trkpt lat="46.49647" lon="5.34533">
        <ele>220</ele>
        <time>2019-04-29T10:10:23Z</time>
      </trkpt>
      <trkpt lat="46.49707" lon="5.34319">
        <ele>226</ele>
        <time>2019-04-29T10:11:23Z</time>
      </trkpt>
      <trkpt lat="46.49718" lon="5.3429">
        <ele>226</ele>
        <time>2019-04-29T10:12:23Z</time>
      </trkpt>
      <trkpt lat="46.49854" lon="5.34065">
        <ele>225</ele>
        <time>2019-04-29T10:13:23Z</time>
      </trkpt>
      <trkpt lat="46.50419" lon="5.33453">
        <ele>226</ele>
        <time>2019-04-29T10:14:23Z</time>
      </trkpt>
      <trkpt lat="46.50437" lon="5.33431">
        <ele>226</ele>
        <time>2019-04-29T10:15:23Z</time>
      </trkpt>
      <trkpt lat="46.50448" lon="5.33411">
        <ele>226</ele>
        <time>2019-04-29T10:16:23Z</time>
      </trkpt>
      <trkpt lat="46.50455" lon="5.33395">
        <ele>226</ele>
        <time>2019-04-29T10:17:23Z</time>
      </trkpt>
      <trkpt lat="46.5046" lon="5.33368">
        <ele>226</ele>
        <time>2019-04-29T10:18:23Z</time>
      </trkpt>
      <trkpt lat="46.50463" lon="5.3334">
        <ele>225</ele>
        <time>2019-04-29T10:19:23Z</time>
      </trkpt>
      <trkpt lat="46.50466" lon="5.3325">
        <ele>227</ele>
        <time>2019-04-29T10:20:23Z</time>
      </trkpt>
      <trkpt lat="46.50468" lon="5.33035">
        <ele>216</ele>
        <time>2019-04-29T10:21:23Z</time>
      </trkpt>
      <trkpt lat="46.50475" lon="5.32668">
        <ele>204</ele>
        <time>2019-04-29T10:22:23Z</time>
      </trkpt>
      <trkpt lat="46.50475" lon="5.32615">
        <ele>203</ele>
        <time>2019-04-29T10:23:23Z</time>
      </trkpt>
      <trkpt lat="46.50471" lon="5.32539">
        <ele>202.9</ele>
        <time>2019-04-29T10:24:23Z</time>
      </trkpt>
      <trkpt lat="46.50465" lon="5.32455">
        <ele>203</ele>
        <time>2019-04-29T10:25:23Z</time>
      </trkpt>
      <trkpt lat="46.50459" lon="5.32415">
        <ele>203</ele>
        <time>2019-04-29T10:26:23Z</time>
      </trkpt>
      <trkpt lat="46.50431" lon="5.32284">
        <ele>200</ele>
        <time>2019-04-29T10:27:23Z</time>
      </trkpt>
      <trkpt lat="46.5043" lon="5.32257">
        <ele>200</ele>
        <time>2019-04-29T10:28:23Z</time>
      </trkpt>
      <trkpt lat="46.50429" lon="5.32198">
        <ele>200</ele>
        <time>2019-04-29T10:29:23Z</time>
      </trkpt>
      <trkpt lat="46.50435" lon="5.31962">
        <ele>198</ele>
        <time>2019-04-29T10:30:23Z</time>
      </trkpt>
      <trkpt lat="46.50435" lon="5.31892">
        <ele>199</ele>
        <time>2019-04-29T10:31:23Z</time>
      </trkpt>
      <trkpt lat="46.50434" lon="5.31867">
        <ele>198</ele>
        <time>2019-04-29T10:32:23Z</time>
      </trkpt>
      <trkpt lat="46.50429" lon="5.31836">
        <ele>198</ele>
        <time>2019-04-29T10:33:23Z</time>
      </trkpt>
      <trkpt lat="46.50409" lon="5.31755">
        <ele>198</ele>
        <time>2019-04-29T10:34:23Z</time>
      </trkpt>
      <trkpt lat="46.5039" lon="5.31711">
        <ele>197</ele>
        <time>2019-04-29T10:35:23Z</time>
      </trkpt>
      <trkpt lat="46.50368" lon="5.31673">
        <ele>197</ele>
        <time>2019-04-29T10:36:23Z</time>
      </trkpt>
      <trkpt lat="46.50354" lon="5.31656">
        <ele>196</ele>
        <time>2019-04-29T10:37:23Z</time>
      </trkpt>
      <trkpt lat="46.50264" lon="5.31586">
        <ele>197</ele>
        <time>2019-04-29T10:38:23Z</time>
      </trkpt>
      <trkpt lat="46.50245" lon="5.31564">
        <ele>197</ele>
        <time>2019-04-29T10:39:23Z</time>
      </trkpt>
      <trkpt lat="46.50228" lon="5.31543">
        <ele>197</ele>
        <time>2019-04-29T10:40:23Z</time>
      </trkpt>
      <trkpt lat="46.50217" lon="5.31522">
        <ele>197</ele>
        <time>2019-04-29T10:41:23Z</time>
      </trkpt>
      <trkpt lat="46.50127" lon="5.31254">
        <ele>197</ele>
        <time>2019-04-29T10:42:23Z</time>
      </trkpt>
      <trkpt lat="46.50012" lon="5.30923">
        <ele>208</ele>
        <time>2019-04-29T10:43:23Z</time>
      </trkpt>
      <trkpt lat="46.49979" lon="5.30835">
        <ele>211</ele>
        <time>2019-04-29T10:44:23Z</time>
      </trkpt>
      <trkpt lat="46.49969" lon="5.308">
        <ele>212</ele>
        <time>2019-04-29T10:45:23Z</time>
      </trkpt>
      <trkpt lat="46.49937" lon="5.30633">
        <ele>213</ele>
        <time>2019-04-29T10:46:23Z</time>
      </trkpt>
      <trkpt lat="46.49931" lon="5.30593">
        <ele>212</ele>
        <time>2019-04-29T10:47:23Z</time>
      </trkpt>
      <trkpt lat="46.4993" lon="5.30559">
        <ele>210</ele>
        <time>2019-04-29T10:48:23Z</time>
      </trkpt>
      <trkpt lat="46.49933" lon="5.30534">
        <ele>209</ele>
        <time>2019-04-29T10:49:23Z</time>
      </trkpt>
      <trkpt lat="46.49938" lon="5.30509">
        <ele>207</ele>
        <time>2019-04-29T10:50:23Z</time>
      </trkpt>
      <trkpt lat="46.4995" lon="5.30482">
        <ele>207</ele>
        <time>2019-04-29T10:51:23Z</time>
      </trkpt>
      <trkpt lat="46.49959" lon="5.30461">
        <ele>207</ele>
        <time>2019-04-29T10:52:23Z</time>
      </trkpt>
      <trkpt lat="46.49973" lon="5.30444">
        <ele>207</ele>
        <time>2019-04-29T10:53:23Z</time>
      </trkpt>
      <trkpt lat="46.50018" lon="5.30408">
        <ele>207</ele>
        <time>2019-04-29T10:54:23Z</time>
      </trkpt>
      <trkpt lat="46.50048" lon="5.30379">
        <ele>207</ele>
        <time>2019-04-29T10:55:23Z</time>
      </trkpt>
      <trkpt lat="46.50057" lon="5.30365">
        <ele>207</ele>
        <time>2019-04-29T10:56:23Z</time>
      </trkpt>
      <trkpt lat="46.50069" lon="5.30341">
        <ele>207</ele>
        <time>2019-04-29T10:57:23Z</time>
      </trkpt>
      <trkpt lat="46.5008" lon="5.30306">
        <ele>207</ele>
        <time>2019-04-29T10:58:23Z</time>
      </trkpt>
      <trkpt lat="46.50084" lon="5.30268">
        <ele>208</ele>
        <time>2019-04-29T10:59:23Z</time>
      </trkpt>
      <trkpt lat="46.50086" lon="5.30048">
        <ele>211</ele>
        <time>2019-04-29T11:00:23Z</time>
      </trkpt>
      <trkpt lat="46.50083" lon="5.30002">
        <ele>210</ele>
        <time>2019-04-29T11:01:23Z</time>
      </trkpt>
      <trkpt lat="46.50075" lon="5.29961">
        <ele>209</ele>
        <time>2019-04-29T11:02:23Z</time>
      </trkpt>
      <trkpt lat="46.50069" lon="5.29944">
        <ele>209</ele>
        <time>2019-04-29T11:03:23Z</time>
      </trkpt>
      <trkpt lat="46.50046" lon="5.29898">
        <ele>208</ele>
        <time>2019-04-29T11:04:23Z</time>
      </trkpt>
      <trkpt lat="46.50011" lon="5.29861">
        <ele>208</ele>
        <time>2019-04-29T11:05:23Z</time>
      </trkpt>
      <trkpt lat="46.49999" lon="5.29855">
        <ele>208</ele>
        <time>2019-04-29T11:06:23Z</time>
      </trkpt>
      <trkpt lat="46.49962" lon="5.29851">
        <ele>209</ele>
        <time>2019-04-29T11:07:23Z</time>
      </trkpt>
      <trkpt lat="46.49943" lon="5.29846">
        <ele>209</ele>
        <time>2019-04-29T11:08:23Z</time>
      </trkpt>
      <trkpt lat="46.49908" lon="5.29834">
        <ele>210</ele>
        <time>2019-04-29T11:09:23Z</time>
      </trkpt>
      <trkpt lat="46.49812" lon="5.29795">
        <ele>211</ele>
        <time>2019-04-29T11:10:23Z</time>
      </trkpt>
      <trkpt lat="46.4975" lon="5.29781">
        <ele>212</ele>
        <time>2019-04-29T11:11:23Z</time>
      </trkpt>
      <trkpt lat="46.49723" lon="5.29725">
        <ele>211</ele>
        <time>2019-04-29T11:12:23Z</time>
      </trkpt>
      <trkpt lat="46.49694" lon="5.29678">
        <ele>211</ele>
        <time>2019-04-29T11:13:23Z</time>
      </trkpt>
      <trkpt lat="46.49525" lon="5.29373">
        <ele>207</ele>
        <time>2019-04-29T11:14:23Z</time>
      </trkpt>
      <trkpt lat="46.4952" lon="5.2936">
        <ele>207</ele>
        <time>2019-04-29T11:15:23Z</time>
      </trkpt>
      <trkpt lat="46.49514" lon="5.29331">
        <ele>205</ele>
        <time>2019-04-29T11:16:23Z</time>
      </trkpt>
      <trkpt lat="46.49511" lon="5.29311">
        <ele>205</ele>
        <time>2019-04-29T11:17:23Z</time>
      </trkpt>
      <trkpt lat="46.4951" lon="5.29288">
        <ele>204</ele>
        <time>2019-04-29T11:18:23Z</time>
      </trkpt>
      <trkpt lat="46.49514" lon="5.29257">
        <ele>203</ele>
        <time>2019-04-29T11:19:23Z</time>
      </trkpt>
      <trkpt lat="46.49524" lon="5.2922">
        <ele>201</ele>
        <time>2019-04-29T11:20:23Z</time>
      </trkpt>
      <trkpt lat="46.49549" lon="5.29167">
        <ele>198</ele>
        <time>2019-04-29T11:21:23Z</time>
      </trkpt>
      <trkpt lat="46.49562" lon="5.29126">
        <ele>195</ele>
        <time>2019-04-29T11:22:23Z</time>
      </trkpt>
      <trkpt lat="46.49578" lon="5.29042">
        <ele>192</ele>
        <time>2019-04-29T11:23:23Z</time>
      </trkpt>
      <trkpt lat="46.49634" lon="5.28732">
        <ele>190</ele>
        <time>2019-04-29T11:24:23Z</time>
      </trkpt>
      <trkpt lat="46.49672" lon="5.2858">
        <ele>186</ele>
        <time>2019-04-29T11:25:23Z</time>
      </trkpt>
      <trkpt lat="46.49686" lon="5.28503">
        <ele>186</ele>
        <time>2019-04-29T11:26:23Z</time>
      </trkpt>
      <trkpt lat="46.49699" lon="5.28401">
        <ele>186</ele>
        <time>2019-04-29T11:27:23Z</time>
      </trkpt>
      <trkpt lat="46.49704" lon="5.28377">
        <ele>185</ele>
        <time>2019-04-29T11:28:23Z</time>
      </trkpt>
      <trkpt lat="46.49727" lon="5.28296">
        <ele>186</ele>
        <time>2019-04-29T11:29:23Z</time>
      </trkpt>
      <trkpt lat="46.49737" lon="5.28255">
        <ele>187</ele>
        <time>2019-04-29T11:30:23Z</time>
      </trkpt>
      <trkpt lat="46.49763" lon="5.2809">
        <ele>187</ele>
        <time>2019-04-29T11:31:23Z</time>
      </trkpt>
      <trkpt lat="46.49764" lon="5.28064">
        <ele>187</ele>
        <time>2019-04-29T11:32:23Z</time>
      </trkpt>
      <trkpt lat="46.49761" lon="5.27867">
        <ele>190</ele>
        <time>2019-04-29T11:33:23Z</time>
      </trkpt>
      <trkpt lat="46.49757" lon="5.27833">
        <ele>190</ele>
        <time>2019-04-29T11:34:23Z</time>
      </trkpt>
      <trkpt lat="46.49752" lon="5.278">
        <ele>191</ele>
        <time>2019-04-29T11:35:23Z</time>
      </trkpt>
      <trkpt lat="46.49723" lon="5.2763">
        <ele>196</ele>
        <time>2019-04-29T11:36:23Z</time>
      </trkpt>
      <trkpt lat="46.49721" lon="5.27607">
        <ele>197</ele>
        <time>2019-04-29T11:37:23Z</time>
      </trkpt>
      <trkpt lat="46.49723" lon="5.27488">
        <ele>205</ele>
        <time>2019-04-29T11:38:23Z</time>
      </trkpt>
      <trkpt lat="46.49722" lon="5.27459">
        <ele>208</ele>
        <time>2019-04-29T11:39:23Z</time>
      </trkpt>
      <trkpt lat="46.49719" lon="5.27433">
        <ele>210</ele>
        <time>2019-04-29T11:40:23Z</time>
      </trkpt>
      <trkpt lat="46.49707" lon="5.27396">
        <ele>213</ele>
        <time>2019-04-29T11:41:23Z</time>
      </trkpt>
      <trkpt lat="46.49663" lon="5.27305">
        <ele>216</ele>
        <time>2019-04-29T11:42:23Z</time>
      </trkpt>
      <trkpt lat="46.49648" lon="5.2727">
        <ele>217</ele>
        <time>2019-04-29T11:43:23Z</time>
      </trkpt>
      <trkpt lat="46.49641" lon="5.27248">
        <ele>217</ele>
        <time>2019-04-29T11:44:23Z</time>
      </trkpt>
      <trkpt lat="46.49637" lon="5.27229">
        <ele>217</ele>
        <time>2019-04-29T11:45:23Z</time>
      </trkpt>
      <trkpt lat="46.49634" lon="5.27183">
        <ele>217</ele>
        <time>2019-04-29T11:46:23Z</time>
      </trkpt>
      <trkpt lat="46.49635" lon="5.27162">
        <ele>216</ele>
        <time>2019-04-29T11:47:23Z</time>
      </trkpt>
      <trkpt lat="46.49638" lon="5.27137">
        <ele>216</ele>
        <time>2019-04-29T11:48:23Z</time>
      </trkpt>
      <trkpt lat="46.49649" lon="5.27093">
        <ele>216</ele>
        <time>2019-04-29T11:49:23Z</time>
      </trkpt>
      <trkpt lat="46.49723" lon="5.26864">
        <ele>215</ele>
        <time>2019-04-29T11:50:23Z</time>
      </trkpt>
      <trkpt lat="46.49732" lon="5.26828">
        <ele>216</ele>
        <time>2019-04-29T11:51:23Z</time>
      </trkpt>
      <trkpt lat="46.49736" lon="5.26803">
        <ele>217</ele>
        <time>2019-04-29T11:52:23Z</time>
      </trkpt>
      <trkpt lat="46.49738" lon="5.26774">
        <ele>219</ele>
        <time>2019-04-29T11:53:23Z</time>
      </trkpt>
      <trkpt lat="46.49739" lon="5.26748">
        <ele>220</ele>
        <time>2019-04-29T11:54:23Z</time>
      </trkpt>
      <trkpt lat="46.49737" lon="5.26715">
        <ele>221</ele>
        <time>2019-04-29T11:55:23Z</time>
      </trkpt>
      <trkpt lat="46.49734" lon="5.26694">
        <ele>222</ele>
        <time>2019-04-29T11:56:23Z</time>
      </trkpt>
      <trkpt lat="46.49723" lon="5.26644">
        <ele>222</ele>
        <time>2019-04-29T11:57:23Z</time>
      </trkpt>
      <trkpt lat="46.49713" lon="5.26616">
        <ele>222</ele>
        <time>2019-04-29T11:58:23Z</time>
      </trkpt>
      <trkpt lat="46.49658" lon="5.26483">
        <ele>216</ele>
        <time>2019-04-29T11:59:23Z</time>
      </trkpt>
      <trkpt lat="46.49644" lon="5.26443">
        <ele>214</ele>
        <time>2019-04-29T12:00:23Z</time>
      </trkpt>
      <trkpt lat="46.49636" lon="5.26395">
        <ele>212</ele>
        <time>2019-04-29T12:01:23Z</time>
      </trkpt>
      <trkpt lat="46.49622" lon="5.26204">
        <ele>201</ele>
        <time>2019-04-29T12:02:23Z</time>
      </trkpt>
      <trkpt lat="46.49619" lon="5.26169">
        <ele>200</ele>
        <time>2019-04-29T12:03:23Z</time>
      </trkpt>
      <trkpt lat="46.4961" lon="5.26127">
        <ele>199</ele>
        <time>2019-04-29T12:04:23Z</time>
      </trkpt>
      <trkpt lat="46.49594" lon="5.26083">
        <ele>200</ele>
        <time>2019-04-29T12:05:23Z</time>
      </trkpt>
      <trkpt lat="46.49573" lon="5.26047">
        <ele>200</ele>
        <time>2019-04-29T12:06:23Z</time>
      </trkpt>
      <trkpt lat="46.4956" lon="5.26029">
        <ele>200</ele>
        <time>2019-04-29T12:07:23Z</time>
      </trkpt>
      <trkpt lat="46.4954" lon="5.26005">
        <ele>200</ele>
        <time>2019-04-29T12:08:23Z</time>
      </trkpt>
      <trkpt lat="46.49123" lon="5.25589">
        <ele>203</ele>
        <time>2019-04-29T12:09:23Z</time>
      </trkpt>
      <trkpt lat="46.49086" lon="5.25551">
        <ele>204</ele>
        <time>2019-04-29T12:10:23Z</time>
      </trkpt>
      <trkpt lat="46.49075" lon="5.25529">
        <ele>204</ele>
        <time>2019-04-29T12:11:23Z</time>
      </trkpt>
      <trkpt lat="46.49066" lon="5.25497">
        <ele>205</ele>
        <time>2019-04-29T12:12:23Z</time>
      </trkpt>
      <trkpt lat="46.49059" lon="5.25426">
        <ele>208</ele>
        <time>2019-04-29T12:13:23Z</time>
      </trkpt>
      <trkpt lat="46.49012" lon="5.25076">
        <ele>205</ele>
        <time>2019-04-29T12:14:23Z</time>
      </trkpt>
      <trkpt lat="46.48997" lon="5.2497">
        <ele>208</ele>
        <time>2019-04-29T12:15:23Z</time>
      </trkpt>
      <trkpt lat="46.4899" lon="5.24938">
        <ele>209</ele>
        <time>2019-04-29T12:16:23Z</time>
      </trkpt>
      <trkpt lat="46.48984" lon="5.24919">
        <ele>210</ele>
        <time>2019-04-29T12:17:23Z</time>
      </trkpt>
      <trkpt lat="46.48971" lon="5.24888">
        <ele>210</ele>
        <time>2019-04-29T12:18:23Z</time>
      </trkpt>
      <trkpt lat="46.48962" lon="5.24875">
        <ele>210</ele>
        <time>2019-04-29T12:19:23Z</time>
      </trkpt>
      <trkpt lat="46.48913" lon="5.24815">
        <ele>210</ele>
        <time>2019-04-29T12:20:23Z</time>
      </trkpt>
      <trkpt lat="46.48913" lon="5.24815">
        <ele>210</ele>
        <time>2019-04-29T12:21:23Z</time>
      </trkpt>
      <trkpt lat="46.48874" lon="5.24769">
        <ele>211</ele>
        <time>2019-04-29T12:22:23Z</time>
      </trkpt>
      <trkpt lat="46.48819" lon="5.24708">
        <ele>211</ele>
        <time>2019-04-29T12:23:23Z</time>
      </trkpt>
      <trkpt lat="46.48789" lon="5.2468">
        <ele>211</ele>
        <time>2019-04-29T12:24:23Z</time>
      </trkpt>
      <trkpt lat="46.48732" lon="5.24632">
        <ele>210</ele>
        <time>2019-04-29T12:25:23Z</time>
      </trkpt>
      <trkpt lat="46.48701" lon="5.24619">
        <ele>211</ele>
        <time>2019-04-29T12:26:23Z</time>
      </trkpt>
      <trkpt lat="46.4863" lon="5.24582">
        <ele>214</ele>
        <time>2019-04-29T12:27:23Z</time>
      </trkpt>
      <trkpt lat="46.48591" lon="5.2456">
        <ele>214</ele>
        <time>2019-04-29T12:28:23Z</time>
      </trkpt>
      <trkpt lat="46.48577" lon="5.24549">
        <ele>214</ele>
        <time>2019-04-29T12:29:23Z</time>
      </trkpt>
      <trkpt lat="46.48558" lon="5.24529">
        <ele>213</ele>
        <time>2019-04-29T12:30:23Z</time>
      </trkpt>
      <trkpt lat="46.48445" lon="5.24391">
        <ele>210</ele>
        <time>2019-04-29T12:31:23Z</time>
      </trkpt>
      <trkpt lat="46.48412" lon="5.24358">
        <ele>210</ele>
        <time>2019-04-29T12:32:23Z</time>
      </trkpt>
      <trkpt lat="46.48402" lon="5.24352">
        <ele>210</ele>
        <time>2019-04-29T12:33:23Z</time>
      </trkpt>
      <trkpt lat="46.48356" lon="5.24333">
        <ele>214</ele>
        <time>2019-04-29T12:34:23Z</time>
      </trkpt>
      <trkpt lat="46.48345" lon="5.24325">
        <ele>215</ele>
        <time>2019-04-29T12:35:23Z</time>
      </trkpt>
      <trkpt lat="46.48318" lon="5.24288">
        <ele>215</ele>
        <time>2019-04-29T12:36:23Z</time>
      </trkpt>
      <trkpt lat="46.48307" lon="5.24277">
        <ele>215</ele>
        <time>2019-04-29T12:37:23Z</time>
      </trkpt>
      <trkpt lat="46.48225" lon="5.24253">
        <ele>215</ele>
        <time>2019-04-29T12:38:23Z</time>
      </trkpt>
      <trkpt lat="46.48211" lon="5.24251">
        <ele>215</ele>
        <time>2019-04-29T12:39:23Z</time>
      </trkpt>
      <trkpt lat="46.48193" lon="5.24256">
        <ele>215</ele>
        <time>2019-04-29T12:40:23Z</time>
      </trkpt>
      <trkpt lat="46.48102" lon="5.24366">
        <ele>212</ele>
        <time>2019-04-29T12:41:23Z</time>
      </trkpt>
      <trkpt lat="46.48064" lon="5.24402">
        <ele>212</ele>
        <time>2019-04-29T12:42:23Z</time>
      </trkpt>
      <trkpt lat="46.47962" lon="5.24471">
        <ele>213</ele>
        <time>2019-04-29T12:43:23Z</time>
      </trkpt>
      <trkpt lat="46.47923" lon="5.24495">
        <ele>214</ele>
        <time>2019-04-29T12:44:23Z</time>
      </trkpt>
      <trkpt lat="46.47911" lon="5.24498">
        <ele>214</ele>
        <time>2019-04-29T12:45:23Z</time>
      </trkpt>
      <trkpt lat="46.47896" lon="5.245">
        <ele>214</ele>
        <time>2019-04-29T12:46:23Z</time>
      </trkpt>
      <trkpt lat="46.47813" lon="5.24497">
        <ele>212</ele>
        <time>2019-04-29T12:47:23Z</time>
      </trkpt>
      <trkpt lat="46.47784" lon="5.245">
        <ele>211</ele>
        <time>2019-04-29T12:48:23Z</time>
      </trkpt>
      <trkpt lat="46.47745" lon="5.24508">
        <ele>209</ele>
        <time>2019-04-29T12:49:23Z</time>
      </trkpt>
      <trkpt lat="46.47705" lon="5.24521">
        <ele>209</ele>
        <time>2019-04-29T12:50:23Z</time>
      </trkpt>
      <trkpt lat="46.47669" lon="5.24538">
        <ele>209</ele>
        <time>2019-04-29T12:51:23Z</time>
      </trkpt>
      <trkpt lat="46.47545" lon="5.24609">
        <ele>210</ele>
        <time>2019-04-29T12:52:23Z</time>
      </trkpt>
      <trkpt lat="46.47501" lon="5.24631">
        <ele>208</ele>
        <time>2019-04-29T12:53:23Z</time>
      </trkpt>
      <trkpt lat="46.47472" lon="5.24638">
        <ele>208</ele>
        <time>2019-04-29T12:54:23Z</time>
      </trkpt>
      <trkpt lat="46.47246" lon="5.24656">
        <ele>205</ele>
        <time>2019-04-29T12:55:23Z</time>
      </trkpt>
      <trkpt lat="46.47189" lon="5.24652">
        <ele>204</ele>
        <time>2019-04-29T12:56:23Z</time>
      </trkpt>
      <trkpt lat="46.47154" lon="5.24645">
        <ele>202</ele>
        <time>2019-04-29T12:57:23Z</time>
      </trkpt>
      <trkpt lat="46.47099" lon="5.2462">
        <ele>198</ele>
        <time>2019-04-29T12:58:23Z</time>
      </trkpt>
      <trkpt lat="46.46919" lon="5.24501">
        <ele>191</ele>
        <time>2019-04-29T12:59:23Z</time>
      </trkpt>
      <trkpt lat="46.46895" lon="5.24482">
        <ele>193</ele>
        <time>2019-04-29T13:00:23Z</time>
      </trkpt>
      <trkpt lat="46.4688" lon="5.24465">
        <ele>194</ele>
        <time>2019-04-29T13:01:23Z</time>
      </trkpt>
      <trkpt lat="46.4686" lon="5.24439">
        <ele>195</ele>
        <time>2019-04-29T13:02:23Z</time>
      </trkpt>
      <trkpt lat="46.46529" lon="5.23965">
        <ele>196</ele>
        <time>2019-04-29T13:03:23Z</time>
      </trkpt>
      <trkpt lat="46.46445" lon="5.23857">
        <ele>190</ele>
        <time>2019-04-29T13:04:23Z</time>
      </trkpt>
      <trkpt lat="46.46418" lon="5.23819">
        <ele>188</ele>
        <time>2019-04-29T13:05:23Z</time>
      </trkpt>
      <trkpt lat="46.46357" lon="5.23749">
        <ele>189</ele>
        <time>2019-04-29T13:06:23Z</time>
      </trkpt>
      <trkpt lat="46.46306" lon="5.23704">
        <ele>190</ele>
        <time>2019-04-29T13:07:23Z</time>
      </trkpt>
      <trkpt lat="46.46146" lon="5.2359">
        <ele>199</ele>
        <time>2019-04-29T13:08:23Z</time>
      </trkpt>
      <trkpt lat="46.45921" lon="5.23406">
        <ele>194</ele>
        <time>2019-04-29T13:09:23Z</time>
      </trkpt>
      <trkpt lat="46.45905" lon="5.23397">
        <ele>194</ele>
        <time>2019-04-29T13:10:23Z</time>
      </trkpt>
      <trkpt lat="46.45873" lon="5.23387">
        <ele>196</ele>
        <time>2019-04-29T13:11:23Z</time>
      </trkpt>
      <trkpt lat="46.45539" lon="5.23305">
        <ele>197</ele>
        <time>2019-04-29T13:12:23Z</time>
      </trkpt>
      <trkpt lat="46.45364" lon="5.23267">
        <ele>196</ele>
        <time>2019-04-29T13:13:23Z</time>
      </trkpt>
      <trkpt lat="46.45338" lon="5.23267">
        <ele>196</ele>
        <time>2019-04-29T13:14:23Z</time>
      </trkpt>
      <trkpt lat="46.45324" lon="5.23272">
        <ele>196</ele>
        <time>2019-04-29T13:15:23Z</time>
      </trkpt>
      <trkpt lat="46.45311" lon="5.23282">
        <ele>196</ele>
        <time>2019-04-29T13:16:23Z</time>
      </trkpt>
      <trkpt lat="46.45213" lon="5.23377">
        <ele>197</ele>
        <time>2019-04-29T13:17:23Z</time>
      </trkpt>
      <trkpt lat="46.45199" lon="5.23385">
        <ele>197</ele>
        <time>2019-04-29T13:18:23Z</time>
      </trkpt>
      <trkpt lat="46.45185" lon="5.23387">
        <ele>197</ele>
        <time>2019-04-29T13:19:23Z</time>
      </trkpt>
      <trkpt lat="46.4517" lon="5.23381">
        <ele>198</ele>
        <time>2019-04-29T13:20:23Z</time>
      </trkpt>
      <trkpt lat="46.45149" lon="5.23362">
        <ele>200</ele>
        <time>2019-04-29T13:21:23Z</time>
      </trkpt>
      <trkpt lat="46.45066" lon="5.2326">
        <ele>207</ele>
        <time>2019-04-29T13:22:23Z</time>
      </trkpt>
      <trkpt lat="46.45044" lon="5.23246">
        <ele>208</ele>
        <time>2019-04-29T13:23:23Z</time>
      </trkpt>
      <trkpt lat="46.45025" lon="5.23244">
        <ele>209</ele>
        <time>2019-04-29T13:24:23Z</time>
      </trkpt>
      <trkpt lat="46.45003" lon="5.23247">
        <ele>210</ele>
        <time>2019-04-29T13:25:23Z</time>
      </trkpt>
      <trkpt lat="46.44976" lon="5.23257">
        <ele>212</ele>
        <time>2019-04-29T13:26:23Z</time>
      </trkpt>
      <trkpt lat="46.44947" lon="5.2327">
        <ele>213</ele>
        <time>2019-04-29T13:27:23Z</time>
      </trkpt>
      <trkpt lat="46.44924" lon="5.23276">
        <ele>214</ele>
        <time>2019-04-29T13:28:23Z</time>
      </trkpt>
      <trkpt lat="46.44898" lon="5.2328">
        <ele>215</ele>
        <time>2019-04-29T13:29:23Z</time>
      </trkpt>
      <trkpt lat="46.44874" lon="5.23278">
        <ele>215</ele>
        <time>2019-04-29T13:30:23Z</time>
      </trkpt>
      <trkpt lat="46.44681" lon="5.23288">
        <ele>201</ele>
        <time>2019-04-29T13:31:23Z</time>
      </trkpt>
      <trkpt lat="46.44679" lon="5.23281">
        <ele>201</ele>
        <time>2019-04-29T13:32:23Z</time>
      </trkpt>
      <trkpt lat="46.44673" lon="5.23271">
        <ele>201</ele>
        <time>2019-04-29T13:33:23Z</time>
      </trkpt>
      <trkpt lat="46.44663" lon="5.23269">
        <ele>200</ele>
        <time>2019-04-29T13:34:23Z</time>
      </trkpt>
      <trkpt lat="46.44655" lon="5.23274">
        <ele>199</ele>
        <time>2019-04-29T13:35:23Z</time>
      </trkpt>
      <trkpt lat="46.44651" lon="5.23286">
        <ele>199</ele>
        <time>2019-04-29T13:36:23Z</time>
      </trkpt>
      <trkpt lat="46.44651" lon="5.23292">
        <ele>198</ele>
        <time>2019-04-29T13:37:23Z</time>
      </trkpt>
      <trkpt lat="46.44068" lon="5.23328">
        <ele>197</ele>
        <time>2019-04-29T13:38:23Z</time>
      </trkpt>
      <trkpt lat="46.43605" lon="5.23359">
        <ele>205</ele>
        <time>2019-04-29T13:39:23Z</time>
      </trkpt>
      <trkpt lat="46.4318" lon="5.23392">
        <ele>197</ele>
        <time>2019-04-29T13:40:23Z</time>
      </trkpt>
      <trkpt lat="46.43145" lon="5.23399">
        <ele>197</ele>
        <time>2019-04-29T13:41:23Z</time>
      </trkpt>
      <trkpt lat="46.42462" lon="5.23582">
        <ele>199</ele>
        <time>2019-04-29T13:42:23Z</time>
      </trkpt>
      <trkpt lat="46.40682" lon="5.24048">
        <ele>221</ele>
        <time>2019-04-29T13:43:23Z</time>
      </trkpt>
      <trkpt lat="46.40455" lon="5.24104">
        <ele>211</ele>
        <time>2019-04-29T13:44:23Z</time>
      </trkpt>
      <trkpt lat="46.39586" lon="5.24331">
        <ele>210</ele>
        <time>2019-04-29T13:45:23Z</time>
      </trkpt>
      <trkpt lat="46.3953" lon="5.2435">
        <ele>209</ele>
        <time>2019-04-29T13:46:23Z</time>
      </trkpt>
      <trkpt lat="46.39125" lon="5.24542">
        <ele>201</ele>
        <time>2019-04-29T13:47:23Z</time>
      </trkpt>
      <trkpt lat="46.38951" lon="5.24627">
        <ele>206</ele>
        <time>2019-04-29T13:48:23Z</time>
      </trkpt>
      <trkpt lat="46.38348" lon="5.25012">
        <ele>201</ele>
        <time>2019-04-29T13:49:23Z</time>
      </trkpt>
      <trkpt lat="46.38082" lon="5.25176">
        <ele>202</ele>
        <time>2019-04-29T13:50:23Z</time>
      </trkpt>
      <trkpt lat="46.38014" lon="5.25216">
        <ele>203</ele>
        <time>2019-04-29T13:51:23Z</time>
      </trkpt>
      <trkpt lat="46.37988" lon="5.25228">
        <ele>203</ele>
        <time>2019-04-29T13:52:23Z</time>
      </trkpt>
      <trkpt lat="46.37578" lon="5.25381">
        <ele>200</ele>
        <time>2019-04-29T13:53:23Z</time>
      </trkpt>
      <trkpt lat="46.37537" lon="5.25401">
        <ele>201</ele>
        <time>2019-04-29T13:54:23Z</time>
      </trkpt>
      <trkpt lat="46.37408" lon="5.25498">
        <ele>208</ele>
        <time>2019-04-29T13:55:23Z</time>
      </trkpt>
      <trkpt lat="46.37323" lon="5.25541">
        <ele>213</ele>
        <time>2019-04-29T13:56:23Z</time>
      </trkpt>
      <trkpt lat="46.37279" lon="5.25558">
        <ele>213</ele>
        <time>2019-04-29T13:57:23Z</time>
      </trkpt>
      <trkpt lat="46.37264" lon="5.25561">
        <ele>214</ele>
        <time>2019-04-29T13:58:23Z</time>
      </trkpt>
      <trkpt lat="46.37226" lon="5.25561">
        <ele>214</ele>
        <time>2019-04-29T13:59:23Z</time>
      </trkpt>
      <trkpt lat="46.3717" lon="5.25544">
        <ele>215</ele>
        <time>2019-04-29T14:00:23Z</time>
      </trkpt>
      <trkpt lat="46.3713" lon="5.25536">
        <ele>216</ele>
        <time>2019-04-29T14:01:23Z</time>
      </trkpt>
      <trkpt lat="46.36961" lon="5.25524">
        <ele>215</ele>
        <time>2019-04-29T14:02:23Z</time>
      </trkpt>
      <trkpt lat="46.3694" lon="5.25529">
        <ele>215</ele>
        <time>2019-04-29T14:03:23Z</time>
      </trkpt>
      <trkpt lat="46.36824" lon="5.2558">
        <ele>220</ele>
        <time>2019-04-29T14:04:23Z</time>
      </trkpt>
      <trkpt lat="46.368" lon="5.2558">
        <ele>222</ele>
        <time>2019-04-29T14:05:23Z</time>
      </trkpt>
      <trkpt lat="46.36781" lon="5.25573">
        <ele>223</ele>
        <time>2019-04-29T14:06:23Z</time>
      </trkpt>
      <trkpt lat="46.36552" lon="5.25397">
        <ele>229</ele>
        <time>2019-04-29T14:07:23Z</time>
      </trkpt>
      <trkpt lat="46.3651" lon="5.25376">
        <ele>228</ele>
        <time>2019-04-29T14:08:23Z</time>
      </trkpt>
      <trkpt lat="46.3628" lon="5.25277">
        <ele>218</ele>
        <time>2019-04-29T14:09:23Z</time>
      </trkpt>
      <trkpt lat="46.36256" lon="5.25274">
        <ele>217</ele>
        <time>2019-04-29T14:10:23Z</time>
      </trkpt>
      <trkpt lat="46.36204" lon="5.25276">
        <ele>220</ele>
        <time>2019-04-29T14:11:23Z</time>
      </trkpt>
      <trkpt lat="46.36172" lon="5.25274">
        <ele>221</ele>
        <time>2019-04-29T14:12:23Z</time>
      </trkpt>
      <trkpt lat="46.36128" lon="5.25267">
        <ele>221</ele>
        <time>2019-04-29T14:13:23Z</time>
      </trkpt>
      <trkpt lat="46.36051" lon="5.25258">
        <ele>220</ele>
        <time>2019-04-29T14:14:23Z</time>
      </trkpt>
      <trkpt lat="46.36" lon="5.25255">
        <ele>218</ele>
        <time>2019-04-29T14:15:23Z</time>
      </trkpt>
      <trkpt lat="46.35974" lon="5.2526">
        <ele>219</ele>
        <time>2019-04-29T14:16:23Z</time>
      </trkpt>
      <trkpt lat="46.35948" lon="5.25271">
        <ele>219</ele>
        <time>2019-04-29T14:17:23Z</time>
      </trkpt>
      <trkpt lat="46.35894" lon="5.25303">
        <ele>218</ele>
        <time>2019-04-29T14:18:23Z</time>
      </trkpt>
      <trkpt lat="46.3587" lon="5.25312">
        <ele>217</ele>
        <time>2019-04-29T14:19:23Z</time>
      </trkpt>
      <trkpt lat="46.35793" lon="5.25321">
        <ele>216</ele>
        <time>2019-04-29T14:20:23Z</time>
      </trkpt>
      <trkpt lat="46.35773" lon="5.25325">
        <ele>216</ele>
        <time>2019-04-29T14:21:23Z</time>
      </trkpt>
      <trkpt lat="46.35737" lon="5.25343">
        <ele>216</ele>
        <time>2019-04-29T14:22:23Z</time>
      </trkpt>
      <trkpt lat="46.35635" lon="5.25416">
        <ele>211</ele>
        <time>2019-04-29T14:23:23Z</time>
      </trkpt>
      <trkpt lat="46.356" lon="5.25446">
        <ele>210</ele>
        <time>2019-04-29T14:24:23Z</time>
      </trkpt>
      <trkpt lat="46.35502" lon="5.25568">
        <ele>210</ele>
        <time>2019-04-29T14:25:23Z</time>
      </trkpt>
      <trkpt lat="46.35469" lon="5.25601">
        <ele>211</ele>
        <time>2019-04-29T14:26:23Z</time>
      </trkpt>
      <trkpt lat="46.35453" lon="5.2561">
        <ele>211</ele>
        <time>2019-04-29T14:27:23Z</time>
      </trkpt>
      <trkpt lat="46.3543" lon="5.25617">
        <ele>211</ele>
        <time>2019-04-29T14:28:23Z</time>
      </trkpt>
      <trkpt lat="46.35009" lon="5.25709">
        <ele>222</ele>
        <time>2019-04-29T14:29:23Z</time>
      </trkpt>
      <trkpt lat="46.34954" lon="5.25724">
        <ele>223</ele>
        <time>2019-04-29T14:30:23Z</time>
      </trkpt>
      <trkpt lat="46.34795" lon="5.2578">
        <ele>227</ele>
        <time>2019-04-29T14:31:23Z</time>
      </trkpt>
      <trkpt lat="46.34795" lon="5.2578">
        <ele>227</ele>
        <time>2019-04-29T14:32:23Z</time>
      </trkpt>
      <trkpt lat="46.34757" lon="5.25799">
        <ele>228</ele>
        <time>2019-04-29T14:33:23Z</time>
      </trkpt>
      <trkpt lat="46.34726" lon="5.25818">
        <ele>228</ele>
        <time>2019-04-29T14:34:23Z</time>
      </trkpt>
      <trkpt lat="46.34677" lon="5.2584">
        <ele>228</ele>
        <time>2019-04-29T14:35:23Z</time>
      </trkpt>
      <trkpt lat="46.3466" lon="5.25845">
        <ele>228</ele>
        <time>2019-04-29T14:36:23Z</time>
      </trkpt>
      <trkpt lat="46.34599" lon="5.25847">
        <ele>224</ele>
        <time>2019-04-29T14:37:23Z</time>
      </trkpt>
      <trkpt lat="46.34581" lon="5.25844">
        <ele>223</ele>
        <time>2019-04-29T14:38:23Z</time>
      </trkpt>
      <trkpt lat="46.34551" lon="5.25834">
        <ele>222</ele>
        <time>2019-04-29T14:39:23Z</time>
      </trkpt>
      <trkpt lat="46.34547" lon="5.25845">
        <ele>221</ele>
        <time>2019-04-29T14:40:23Z</time>
      </trkpt>
      <trkpt lat="46.34548" lon="5.25861">
        <ele>220</ele>
        <time>2019-04-29T14:41:23Z</time>
      </trkpt>
      <trkpt lat="46.34619" lon="5.25973">
        <ele>216</ele>
        <time>2019-04-29T14:42:23Z</time>
      </trkpt>
      <trkpt lat="46.34624" lon="5.25988">
        <ele>216</ele>
        <time>2019-04-29T14:43:23Z</time>
      </trkpt>
      <trkpt lat="46.34655" lon="5.26038">
        <ele>216</ele>
        <time>2019-04-29T14:44:23Z</time>
      </trkpt>
      <trkpt lat="46.34663" lon="5.26057">
        <ele>216</ele>
        <time>2019-04-29T14:45:23Z</time>
      </trkpt>
      <trkpt lat="46.34668" lon="5.26074">
        <ele>215</ele>
        <time>2019-04-29T14:46:23Z</time>
      </trkpt>
      <trkpt lat="46.34675" lon="5.26117">
        <ele>215</ele>
        <time>2019-04-29T14:47:23Z</time>
      </trkpt>
      <trkpt lat="46.34682" lon="5.26136">
        <ele>215</ele>
        <time>2019-04-29T14:48:23Z</time>
      </trkpt>
      <trkpt lat="46.34711" lon="5.26301">
        <ele>215</ele>
        <time>2019-04-29T14:49:23Z</time>
      </trkpt>
      <trkpt lat="46.34719" lon="5.26337">
        <ele>214</ele>
        <time>2019-04-29T14:50:23Z</time>
      </trkpt>
      <trkpt lat="46.34726" lon="5.26354">
        <ele>214</ele>
        <time>2019-04-29T14:51:23Z</time>
      </trkpt>
      <trkpt lat="46.34735" lon="5.2637">
        <ele>213</ele>
        <time>2019-04-29T14:52:23Z</time>
      </trkpt>
      <trkpt lat="46.34761" lon="5.26401">
        <ele>212</ele>
        <time>2019-04-29T14:53:23Z</time>
      </trkpt>
      <trkpt lat="46.34968" lon="5.26615">
        <ele>205</ele>
        <time>2019-04-29T14:54:23Z</time>
      </trkpt>
      <trkpt lat="46.34991" lon="5.26641">
        <ele>205</ele>
        <time>2019-04-29T14:55:23Z</time>
      </trkpt>
      <trkpt lat="46.35014" lon="5.26672">
        <ele>204</ele>
        <time>2019-04-29T14:56:23Z</time>
      </trkpt>
      <trkpt lat="46.35042" lon="5.26715">
        <ele>204</ele>
        <time>2019-04-29T14:57:23Z</time>
      </trkpt>
      <trkpt lat="46.35186" lon="5.26952">
        <ele>203</ele>
        <time>2019-04-29T14:58:23Z</time>
      </trkpt>
      <trkpt lat="46.35243" lon="5.2704">
        <ele>202</ele>
        <time>2019-04-29T14:59:23Z</time>
      </trkpt>
      <trkpt lat="46.35271" lon="5.27077">
        <ele>201</ele>
        <time>2019-04-29T15:00:23Z</time>
      </trkpt>
      <trkpt lat="46.3531" lon="5.27122">
        <ele>200</ele>
        <time>2019-04-29T15:01:23Z</time>
      </trkpt>
      <trkpt lat="46.35337" lon="5.2715">
        <ele>199</ele>
        <time>2019-04-29T15:02:23Z</time>
      </trkpt>
      <trkpt lat="46.35353" lon="5.27162">
        <ele>199</ele>
        <time>2019-04-29T15:03:23Z</time>
      </trkpt>
      <trkpt lat="46.35365" lon="5.27167">
        <ele>199</ele>
        <time>2019-04-29T15:04:23Z</time>
      </trkpt>
      <trkpt lat="46.35477" lon="5.27188">
        <ele>200</ele>
        <time>2019-04-29T15:05:23Z</time>
      </trkpt>
      <trkpt lat="46.35503" lon="5.272">
        <ele>201</ele>
        <time>2019-04-29T15:06:23Z</time>
      </trkpt>
      <trkpt lat="46.3552" lon="5.27217">
        <ele>200</ele>
        <time>2019-04-29T15:07:23Z</time>
      </trkpt>
      <trkpt lat="46.35534" lon="5.27237">
        <ele>200</ele>
        <time>2019-04-29T15:08:23Z</time>
      </trkpt>
      <trkpt lat="46.35545" lon="5.2726">
        <ele>199</ele>
        <time>2019-04-29T15:09:23Z</time>
      </trkpt>
      <trkpt lat="46.35787" lon="5.27759">
        <ele>197</ele>
        <time>2019-04-29T15:10:23Z</time>
      </trkpt>
      <trkpt lat="46.35805" lon="5.27803">
        <ele>198</ele>
        <time>2019-04-29T15:11:23Z</time>
      </trkpt>
      <trkpt lat="46.35853" lon="5.27947">
        <ele>207</ele>
        <time>2019-04-29T15:12:23Z</time>
      </trkpt>
      <trkpt lat="46.35882" lon="5.28022">
        <ele>212</ele>
        <time>2019-04-29T15:13:23Z</time>
      </trkpt>
      <trkpt lat="46.35915" lon="5.28096">
        <ele>216</ele>
        <time>2019-04-29T15:14:23Z</time>
      </trkpt>
      <trkpt lat="46.35935" lon="5.28132">
        <ele>218</ele>
        <time>2019-04-29T15:15:23Z</time>
      </trkpt>
      <trkpt lat="46.35956" lon="5.28169">
        <ele>219</ele>
        <time>2019-04-29T15:16:23Z</time>
      </trkpt>
      <trkpt lat="46.35982" lon="5.28203">
        <ele>218</ele>
        <time>2019-04-29T15:17:23Z</time>
      </trkpt>
      <trkpt lat="46.36006" lon="5.28219">
        <ele>218</ele>
        <time>2019-04-29T15:18:23Z</time>
      </trkpt>
      <trkpt lat="46.36035" lon="5.2823">
        <ele>217</ele>
        <time>2019-04-29T15:19:23Z</time>
      </trkpt>
      <trkpt lat="46.36109" lon="5.28252">
        <ele>216</ele>
        <time>2019-04-29T15:20:23Z</time>
      </trkpt>
      <trkpt lat="46.36137" lon="5.28265">
        <ele>215</ele>
        <time>2019-04-29T15:21:23Z</time>
      </trkpt>
      <trkpt lat="46.36164" lon="5.28283">
        <ele>214</ele>
        <time>2019-04-29T15:22:23Z</time>
      </trkpt>
      <trkpt lat="46.36199" lon="5.28317">
        <ele>211</ele>
        <time>2019-04-29T15:23:23Z</time>
      </trkpt>
      <trkpt lat="46.36279" lon="5.2842">
        <ele>206</ele>
        <time>2019-04-29T15:24:23Z</time>
      </trkpt>
      <trkpt lat="46.36461" lon="5.28632">
        <ele>212</ele>
        <time>2019-04-29T15:25:23Z</time>
      </trkpt>
      <trkpt lat="46.36509" lon="5.28694">
        <ele>212</ele>
        <time>2019-04-29T15:26:23Z</time>
      </trkpt>
      <trkpt lat="46.3672" lon="5.2901">
        <ele>227</ele>
        <time>2019-04-29T15:27:23Z</time>
      </trkpt>
      <trkpt lat="46.36772" lon="5.29083">
        <ele>230</ele>
        <time>2019-04-29T15:28:23Z</time>
      </trkpt>
      <trkpt lat="46.36817" lon="5.29139">
        <ele>227</ele>
        <time>2019-04-29T15:29:23Z</time>
      </trkpt>
      <trkpt lat="46.36842" lon="5.29181">
        <ele>225</ele>
        <time>2019-04-29T15:30:23Z</time>
      </trkpt>
      <trkpt lat="46.36915" lon="5.29359">
        <ele>218</ele>
        <time>2019-04-29T15:31:23Z</time>
      </trkpt>
      <trkpt lat="46.36931" lon="5.29386">
        <ele>217</ele>
        <time>2019-04-29T15:32:23Z</time>
      </trkpt>
      <trkpt lat="46.36957" lon="5.29421">
        <ele>216</ele>
        <time>2019-04-29T15:33:23Z</time>
      </trkpt>
      <trkpt lat="46.36999" lon="5.29483">
        <ele>214</ele>
        <time>2019-04-29T15:34:23Z</time>
      </trkpt>
      <trkpt lat="46.37007" lon="5.29508">
        <ele>213</ele>
        <time>2019-04-29T15:35:23Z</time>
      </trkpt>
      <trkpt lat="46.37011" lon="5.29626">
        <ele>215</ele>
        <time>2019-04-29T15:36:23Z</time>
      </trkpt>
      <trkpt lat="46.37012" lon="5.2975">
        <ele>221</ele>
        <time>2019-04-29T15:37:23Z</time>
      </trkpt>
      <trkpt lat="46.37015" lon="5.29786">
        <ele>223</ele>
        <time>2019-04-29T15:38:23Z</time>
      </trkpt>
      <trkpt lat="46.37023" lon="5.29815">
        <ele>224</ele>
        <time>2019-04-29T15:39:23Z</time>
      </trkpt>
      <trkpt lat="46.37037" lon="5.29834">
        <ele>225</ele>
        <time>2019-04-29T15:40:23Z</time>
      </trkpt>
      <trkpt lat="46.37168" lon="5.29927">
        <ele>229</ele>
        <time>2019-04-29T15:41:23Z</time>
      </trkpt>
      <trkpt lat="46.3718" lon="5.29931">
        <ele>229</ele>
        <time>2019-04-29T15:42:23Z</time>
      </trkpt>
      <trkpt lat="46.37199" lon="5.29929">
        <ele>228</ele>
        <time>2019-04-29T15:43:23Z</time>
      </trkpt>
      <trkpt lat="46.37211" lon="5.30056">
        <ele>218</ele>
        <time>2019-04-29T15:44:23Z</time>
      </trkpt>
      <trkpt lat="46.37256" lon="5.30043">
        <ele>216</ele>
        <time>2019-04-29T15:45:23Z</time>
      </trkpt>
      <trkpt lat="46.37259" lon="5.30086">
        <ele>214</ele>
        <time>2019-04-29T15:46:23Z</time>
      </trkpt>
      <trkpt lat="46.3726" lon="5.30129">
        <ele>212</ele>
        <time>2019-04-29T15:47:23Z</time>
      </trkpt>
      <trkpt lat="46.37257" lon="5.30148">
        <ele>211</ele>
        <time>2019-04-29T15:48:23Z</time>
      </trkpt>
      <trkpt lat="46.37252" lon="5.30162">
        <ele>210</ele>
        <time>2019-04-29T15:49:23Z</time>
      </trkpt>
      <trkpt lat="46.37248" lon="5.30171">
        <ele>210</ele>
        <time>2019-04-29T15:50:23Z</time>
      </trkpt>
      <trkpt lat="46.37232" lon="5.30186">
        <ele>209</ele>
        <time>2019-04-29T15:51:23Z</time>
      </trkpt>
      <trkpt lat="46.3717" lon="5.3022">
        <ele>207</ele>
        <time>2019-04-29T15:52:23Z</time>
      </trkpt>
      <trkpt lat="46.37158" lon="5.30228">
        <ele>207</ele>
        <time>2019-04-29T15:53:23Z</time>
      </trkpt>
      <trkpt lat="46.3715" lon="5.30238">
        <ele>206</ele>
        <time>2019-04-29T15:54:23Z</time>
      </trkpt>
      <trkpt lat="46.37143" lon="5.30249">
        <ele>205</ele>
        <time>2019-04-29T15:55:23Z</time>
      </trkpt>
      <trkpt lat="46.37138" lon="5.30265">
        <ele>205</ele>
        <time>2019-04-29T15:56:23Z</time>
      </trkpt>
      <trkpt lat="46.37135" lon="5.3029">
        <ele>204</ele>
        <time>2019-04-29T15:57:23Z</time>
      </trkpt>
      <trkpt lat="46.37114" lon="5.30559">
        <ele>204</ele>
        <time>2019-04-29T15:58:23Z</time>
      </trkpt>
      <trkpt lat="46.37113" lon="5.30588">
        <ele>204</ele>
        <time>2019-04-29T15:59:23Z</time>
      </trkpt>
      <trkpt lat="46.37115" lon="5.30612">
        <ele>204</ele>
        <time>2019-04-29T16:00:23Z</time>
      </trkpt>
      <trkpt lat="46.37119" lon="5.30632">
        <ele>203</ele>
        <time>2019-04-29T16:01:23Z</time>
      </trkpt>
      <trkpt lat="46.37128" lon="5.30671">
        <ele>203</ele>
        <time>2019-04-29T16:02:23Z</time>
      </trkpt>
      <trkpt lat="46.37157" lon="5.30763">
        <ele>201</ele>
        <time>2019-04-29T16:03:23Z</time>
      </trkpt>
      <trkpt lat="46.37166" lon="5.30786">
        <ele>201</ele>
        <time>2019-04-29T16:04:23Z</time>
      </trkpt>
      <trkpt lat="46.37184" lon="5.30821">
        <ele>201</ele>
        <time>2019-04-29T16:05:23Z</time>
      </trkpt>
      <trkpt lat="46.37907" lon="5.31874">
        <ele>210</ele>
        <time>2019-04-29T16:06:23Z</time>
      </trkpt>
      <trkpt lat="46.37923" lon="5.31905">
        <ele>211</ele>
        <time>2019-04-29T16:07:23Z</time>
      </trkpt>
      <trkpt lat="46.37932" lon="5.3193">
        <ele>211</ele>
        <time>2019-04-29T16:08:23Z</time>
      </trkpt>
      <trkpt lat="46.37957" lon="5.32033">
        <ele>212</ele>
        <time>2019-04-29T16:09:23Z</time>
      </trkpt>
      <trkpt lat="46.37967" lon="5.32052">
        <ele>212</ele>
        <time>2019-04-29T16:10:23Z</time>
      </trkpt>
      <trkpt lat="46.37985" lon="5.32079">
        <ele>212</ele>
        <time>2019-04-29T16:11:23Z</time>
      </trkpt>
      <trkpt lat="46.37985" lon="5.32079">
        <ele>212</ele>
        <time>2019-04-29T16:12:23Z</time>
      </trkpt>
      <trkpt lat="46.38009" lon="5.32114">
        <ele>211</ele>
        <time>2019-04-29T16:13:23Z</time>
      </trkpt>
      <trkpt lat="46.38021" lon="5.3214">
        <ele>212</ele>
        <time>2019-04-29T16:14:23Z</time>
      </trkpt>
      <trkpt lat="46.38035" lon="5.32184">
        <ele>213</ele>
        <time>2019-04-29T16:15:23Z</time>
      </trkpt>
      <trkpt lat="46.38053" lon="5.3227">
        <ele>215</ele>
        <time>2019-04-29T16:16:23Z</time>
      </trkpt>
      <trkpt lat="46.38055" lon="5.32303">
        <ele>215</ele>
        <time>2019-04-29T16:17:23Z</time>
      </trkpt>
      <trkpt lat="46.38054" lon="5.32333">
        <ele>215</ele>
        <time>2019-04-29T16:18:23Z</time>
      </trkpt>
      <trkpt lat="46.38045" lon="5.32374">
        <ele>216</ele>
        <time>2019-04-29T16:19:23Z</time>
      </trkpt>
      <trkpt lat="46.38001" lon="5.32517">
        <ele>216</ele>
        <time>2019-04-29T16:20:23Z</time>
      </trkpt>
      <trkpt lat="46.37916" lon="5.3278">
        <ele>217</ele>
        <time>2019-04-29T16:21:23Z</time>
      </trkpt>
      <trkpt lat="46.37909" lon="5.32814">
        <ele>217</ele>
        <time>2019-04-29T16:22:23Z</time>
      </trkpt>
      <trkpt lat="46.37909" lon="5.32849">
        <ele>217</ele>
        <time>2019-04-29T16:23:23Z</time>
      </trkpt>
      <trkpt lat="46.37913" lon="5.32899">
        <ele>218</ele>
        <time>2019-04-29T16:24:23Z</time>
      </trkpt>
      <trkpt lat="46.37922" lon="5.32934">
        <ele>219</ele>
        <time>2019-04-29T16:25:23Z</time>
      </trkpt>
      <trkpt lat="46.38041" lon="5.33304">
        <ele>231</ele>
        <time>2019-04-29T16:26:23Z</time>
      </trkpt>
      <trkpt lat="46.38051" lon="5.33354">
        <ele>232</ele>
        <time>2019-04-29T16:27:23Z</time>
      </trkpt>
      <trkpt lat="46.38066" lon="5.33641">
        <ele>240</ele>
        <time>2019-04-29T16:28:23Z</time>
      </trkpt>
      <trkpt lat="46.38065" lon="5.33686">
        <ele>242</ele>
        <time>2019-04-29T16:29:23Z</time>
      </trkpt>
      <trkpt lat="46.3805" lon="5.33886">
        <ele>252</ele>
        <time>2019-04-29T16:30:23Z</time>
      </trkpt>
      <trkpt lat="46.38054" lon="5.33977">
        <ele>257</ele>
        <time>2019-04-29T16:31:23Z</time>
      </trkpt>
      <trkpt lat="46.38059" lon="5.34054">
        <ele>264</ele>
        <time>2019-04-29T16:32:23Z</time>
      </trkpt>
      <trkpt lat="46.38064" lon="5.34073">
        <ele>266</ele>
        <time>2019-04-29T16:33:23Z</time>
      </trkpt>
      <trkpt lat="46.38079" lon="5.34092">
        <ele>266</ele>
        <time>2019-04-29T16:34:23Z</time>
      </trkpt>
      <trkpt lat="46.3809" lon="5.34097">
        <ele>266</ele>
        <time>2019-04-29T16:35:23Z</time>
      </trkpt>
      <trkpt lat="46.38132" lon="5.3411">
        <ele>269</ele>
        <time>2019-04-29T16:36:23Z</time>
      </trkpt>
      <trkpt lat="46.38144" lon="5.3412">
        <ele>269</ele>
        <time>2019-04-29T16:37:23Z</time>
      </trkpt>
      <trkpt lat="46.3815" lon="5.34132">
        <ele>270</ele>
        <time>2019-04-29T16:38:23Z</time>
      </trkpt>
      <trkpt lat="46.38156" lon="5.34154">
        <ele>271</ele>
        <time>2019-04-29T16:39:23Z</time>
      </trkpt>
      <trkpt lat="46.38154" lon="5.34179">
        <ele>272</ele>
        <time>2019-04-29T16:40:23Z</time>
      </trkpt>
      <trkpt lat="46.38228" lon="5.34171">
        <ele>274</ele>
        <time>2019-04-29T16:41:23Z</time>
      </trkpt>
      <trkpt lat="46.38258" lon="5.3418">
        <ele>275</ele>
        <time>2019-04-29T16:42:23Z</time>
      </trkpt>
      <trkpt lat="46.38265" lon="5.34274">
        <ele>278</ele>
        <time>2019-04-29T16:43:23Z</time>
      </trkpt>
      <trkpt lat="46.38271" lon="5.34321">
        <ele>277</ele>
        <time>2019-04-29T16:44:23Z</time>
      </trkpt>
      <trkpt lat="46.38291" lon="5.34366">
        <ele>278</ele>
        <time>2019-04-29T16:45:23Z</time>
      </trkpt>
      <trkpt lat="46.38302" lon="5.34489">
        <ele>285</ele>
        <time>2019-04-29T16:46:23Z</time>
      </trkpt>
      <trkpt lat="46.38321" lon="5.34498">
        <ele>285</ele>
        <time>2019-04-29T16:47:23Z</time>
      </trkpt>
      <trkpt lat="46.38316" lon="5.34548">
        <ele>288</ele>
        <time>2019-04-29T16:48:23Z</time>
      </trkpt>
      <trkpt lat="46.38411" lon="5.34581">
        <ele>289</ele>
        <time>2019-04-29T16:49:23Z</time>
      </trkpt>
      <trkpt lat="46.38421" lon="5.34583">
        <ele>289</ele>
        <time>2019-04-29T16:50:23Z</time>
      </trkpt>
      <trkpt lat="46.38463" lon="5.34581">
        <ele>286</ele>
        <time>2019-04-29T16:51:23Z</time>
      </trkpt>
      <trkpt lat="46.38493" lon="5.34586">
        <ele>285</ele>
        <time>2019-04-29T16:52:23Z</time>
      </trkpt>
      <trkpt lat="46.3852" lon="5.34596">
        <ele>285</ele>
        <time>2019-04-29T16:53:23Z</time>
      </trkpt>
      <trkpt lat="46.3857" lon="5.34627">
        <ele>291</ele>
        <time>2019-04-29T16:54:23Z</time>
      </trkpt>
      <trkpt lat="46.38584" lon="5.34633">
        <ele>292</ele>
        <time>2019-04-29T16:55:23Z</time>
      </trkpt>
      <trkpt lat="46.38637" lon="5.34646">
        <ele>293</ele>
        <time>2019-04-29T16:56:23Z</time>
      </trkpt>
      <trkpt lat="46.38662" lon="5.34657">
        <ele>293</ele>
        <time>2019-04-29T16:57:23Z</time>
      </trkpt>
      <trkpt lat="46.38674" lon="5.34664">
        <ele>293</ele>
        <time>2019-04-29T16:58:23Z</time>
      </trkpt>
      <trkpt lat="46.38693" lon="5.34679">
        <ele>293</ele>
        <time>2019-04-29T16:59:23Z</time>
      </trkpt>
      <trkpt lat="46.38712" lon="5.34697">
        <ele>293</ele>
        <time>2019-04-29T17:00:23Z</time>
      </trkpt>
      <trkpt lat="46.38748" lon="5.34753">
        <ele>293</ele>
        <time>2019-04-29T17:01:23Z</time>
      </trkpt>
      <trkpt lat="46.38752" lon="5.34756">
        <ele>293</ele>
        <time>2019-04-29T17:02:23Z</time>
      </trkpt>
      <trkpt lat="46.38766" lon="5.3476">
        <ele>294</ele>
        <time>2019-04-29T17:03:23Z</time>
      </trkpt>
      <trkpt lat="46.38782" lon="5.34756">
        <ele>295</ele>
        <time>2019-04-29T17:04:23Z</time>
      </trkpt>
      <trkpt lat="46.38832" lon="5.34722">
        <ele>293</ele>
        <time>2019-04-29T17:05:23Z</time>
      </trkpt>
      <trkpt lat="46.38847" lon="5.34717">
        <ele>293</ele>
        <time>2019-04-29T17:06:23Z</time>
      </trkpt>
      <trkpt lat="46.38866" lon="5.34718">
        <ele>293</ele>
        <time>2019-04-29T17:07:23Z</time>
      </trkpt>
      <trkpt lat="46.38906" lon="5.34733">
        <ele>296</ele>
        <time>2019-04-29T17:08:23Z</time>
      </trkpt>
      <trkpt lat="46.38918" lon="5.34733">
        <ele>296</ele>
        <time>2019-04-29T17:09:23Z</time>
      </trkpt>
      <trkpt lat="46.38992" lon="5.34717">
        <ele>297</ele>
        <time>2019-04-29T17:10:23Z</time>
      </trkpt>
      <trkpt lat="46.39057" lon="5.34719">
        <ele>304</ele>
        <time>2019-04-29T17:11:23Z</time>
      </trkpt>
      <trkpt lat="46.39123" lon="5.34728">
        <ele>307</ele>
        <time>2019-04-29T17:12:23Z</time>
      </trkpt>
      <trkpt lat="46.39199" lon="5.34746">
        <ele>307</ele>
        <time>2019-04-29T17:13:23Z</time>
      </trkpt>
      <trkpt lat="46.39822" lon="5.34916">
        <ele>305</ele>
        <time>2019-04-29T17:14:23Z</time>
      </trkpt>
      <trkpt lat="46.40106" lon="5.34975">
        <ele>306</ele>
        <time>2019-04-29T17:15:23Z</time>
      </trkpt>
      <trkpt lat="46.40106" lon="5.34975">
        <ele>306</ele>
        <time>2019-04-29T17:16:23Z</time>
      </trkpt>
      <trkpt lat="46.40143" lon="5.34983">
        <ele>307</ele>
        <time>2019-04-29T17:17:23Z</time>
      </trkpt>
      <trkpt lat="46.40141" lon="5.35006">
        <ele>309</ele>
        <time>2019-04-29T17:18:23Z</time>
      </trkpt>
      <trkpt lat="46.40135" lon="5.35039">
        <ele>313</ele>
        <time>2019-04-29T17:19:23Z</time>
      </trkpt>
      <trkpt lat="46.40134" lon="5.35049">
        <ele>314</ele>
        <time>2019-04-29T17:20:23Z</time>
      </trkpt>
      <trkpt lat="46.40138" lon="5.35056">
        <ele>315</ele>
        <time>2019-04-29T17:21:23Z</time>
      </trkpt>
      <trkpt lat="46.40146" lon="5.3506">
        <ele>315</ele>
        <time>2019-04-29T17:22:23Z</time>
      </trkpt>
      <trkpt lat="46.40189" lon="5.35071">
        <ele>315</ele>
        <time>2019-04-29T17:23:23Z</time>
      </trkpt>
      <trkpt lat="46.40248" lon="5.3508">
        <ele>316</ele>
        <time>2019-04-29T17:24:23Z</time>
      </trkpt>
      <trkpt lat="46.40285" lon="5.35092">
        <ele>314</ele>
        <time>2019-04-29T17:25:23Z</time>
      </trkpt>
      <trkpt lat="46.40287" lon="5.35096">
        <ele>315</ele>
        <time>2019-04-29T17:26:23Z</time>
      </trkpt>
      <trkpt lat="46.40287" lon="5.35103">
        <ele>315</ele>
        <time>2019-04-29T17:27:23Z</time>
      </trkpt>
      <trkpt lat="46.40271" lon="5.35184">
        <ele>326</ele>
        <time>2019-04-29T17:28:23Z</time>
      </trkpt>
      <trkpt lat="46.40266" lon="5.35224">
        <ele>331</ele>
        <time>2019-04-29T17:29:23Z</time>
      </trkpt>
      <trkpt lat="46.40254" lon="5.35272">
        <ele>338</ele>
        <time>2019-04-29T17:30:23Z</time>
      </trkpt>
      <trkpt lat="46.40253" lon="5.35282">
        <ele>339</ele>
        <time>2019-04-29T17:31:23Z</time>
      </trkpt>
      <trkpt lat="46.4026" lon="5.3531">
        <ele>343</ele>
        <time>2019-04-29T17:32:23Z</time>
      </trkpt>
      <trkpt lat="46.40265" lon="5.35321">
        <ele>344</ele>
        <time>2019-04-29T17:33:23Z</time>
      </trkpt>
      <trkpt lat="46.40273" lon="5.3533">
        <ele>345</ele>
        <time>2019-04-29T17:34:23Z</time>
      </trkpt>
      <trkpt lat="46.403" lon="5.35355">
        <ele>348</ele>
        <time>2019-04-29T17:35:23Z</time>
      </trkpt>
      <trkpt lat="46.40306" lon="5.35363">
        <ele>349</ele>
        <time>2019-04-29T17:36:23Z</time>
      </trkpt>
      <trkpt lat="46.40313" lon="5.35388">
        <ele>353</ele>
        <time>2019-04-29T17:37:23Z</time>
      </trkpt>
      <trkpt lat="46.40318" lon="5.354">
        <ele>355</ele>
        <time>2019-04-29T17:38:23Z</time>
      </trkpt>
      <trkpt lat="46.40359" lon="5.35454">
        <ele>364</ele>
        <time>2019-04-29T17:39:23Z</time>
      </trkpt>
      <trkpt lat="46.40394" lon="5.35493">
        <ele>372</ele>
        <time>2019-04-29T17:40:23Z</time>
      </trkpt>
      <trkpt lat="46.40413" lon="5.35507">
        <ele>374</ele>
        <time>2019-04-29T17:41:23Z</time>
      </trkpt>
      <trkpt lat="46.40475" lon="5.35574">
        <ele>384</ele>
        <time>2019-04-29T17:42:23Z</time>
      </trkpt>
      <trkpt lat="46.40484" lon="5.35585">
        <ele>386</ele>
        <time>2019-04-29T17:43:23Z</time>
      </trkpt>
      <trkpt lat="46.40489" lon="5.35601">
        <ele>388</ele>
        <time>2019-04-29T17:44:23Z</time>
      </trkpt>
      <trkpt lat="46.40489" lon="5.35609">
        <ele>389</ele>
        <time>2019-04-29T17:45:23Z</time>
      </trkpt>
      <trkpt lat="46.40471" lon="5.35668">
        <ele>401</ele>
        <time>2019-04-29T17:46:23Z</time>
      </trkpt>
      <trkpt lat="46.40468" lon="5.35685">
        <ele>405</ele>
        <time>2019-04-29T17:47:23Z</time>
      </trkpt>
      <trkpt lat="46.40473" lon="5.35704">
        <ele>409</ele>
        <time>2019-04-29T17:48:23Z</time>
      </trkpt>
      <trkpt lat="46.40512" lon="5.35754">
        <ele>417</ele>
        <time>2019-04-29T17:49:23Z</time>
      </trkpt>
      <trkpt lat="46.40513" lon="5.35763">
        <ele>419</ele>
        <time>2019-04-29T17:50:23Z</time>
      </trkpt>
      <trkpt lat="46.40511" lon="5.35766">
        <ele>420</ele>
        <time>2019-04-29T17:51:23Z</time>
      </trkpt>
      <trkpt lat="46.40519" lon="5.35777">
        <ele>422</ele>
        <time>2019-04-29T17:52:23Z</time>
      </trkpt>
      <trkpt lat="46.40548" lon="5.35794">
        <ele>424</ele>
        <time>2019-04-29T17:53:23Z</time>
      </trkpt>
      <trkpt lat="46.40556" lon="5.35804">
        <ele>426</ele>
        <time>2019-04-29T17:54:23Z</time>
      </trkpt>
      <trkpt lat="46.40573" lon="5.35811">
        <ele>426</ele>
        <time>2019-04-29T17:55:23Z</time>
      </trkpt>
      <trkpt lat="46.40599" lon="5.35826">
        <ele>425</ele>
        <time>2019-04-29T17:56:23Z</time>
      </trkpt>
      <trkpt lat="46.40607" lon="5.35835">
        <ele>425</ele>
        <time>2019-04-29T17:57:23Z</time>
      </trkpt>
      <trkpt lat="46.40612" lon="5.35841">
        <ele>425</ele>
        <time>2019-04-29T17:58:23Z</time>
      </trkpt>
      <trkpt lat="46.40617" lon="5.35856">
        <ele>426</ele>
        <time>2019-04-29T17:59:23Z</time>
      </trkpt>
      <trkpt lat="46.40621" lon="5.35879">
        <ele>427</ele>
        <time>2019-04-29T18:00:23Z</time>
      </trkpt>
      <trkpt lat="46.40628" lon="5.35905">
        <ele>428</ele>
        <time>2019-04-29T18:01:23Z</time>
      </trkpt>
      <trkpt lat="46.40637" lon="5.35923">
        <ele>428</ele>
        <time>2019-04-29T18:02:23Z</time>
      </trkpt>
      <trkpt lat="46.40674" lon="5.35983">
        <ele>427</ele>
        <time>2019-04-29T18:03:23Z</time>
      </trkpt>
      <trkpt lat="46.40691" lon="5.36004">
        <ele>426</ele>
        <time>2019-04-29T18:04:23Z</time>
      </trkpt>
      <trkpt lat="46.40784" lon="5.36075">
        <ele>425</ele>
        <time>2019-04-29T18:05:23Z</time>
      </trkpt>
      <trkpt lat="46.40793" lon="5.36079">
        <ele>424</ele>
        <time>2019-04-29T18:06:23Z</time>
      </trkpt>
      <trkpt lat="46.40793" lon="5.36079">
        <ele>424</ele>
        <time>2019-04-29T18:07:23Z</time>
      </trkpt>
      <trkpt lat="46.40817" lon="5.36087">
        <ele>423</ele>
        <time>2019-04-29T18:08:23Z</time>
      </trkpt>
      <trkpt lat="46.40915" lon="5.36086">
        <ele>413</ele>
        <time>2019-04-29T18:09:23Z</time>
      </trkpt>
      <trkpt lat="46.40945" lon="5.36088">
        <ele>409</ele>
        <time>2019-04-29T18:10:23Z</time>
      </trkpt>
      <trkpt lat="46.40967" lon="5.36093">
        <ele>407</ele>
        <time>2019-04-29T18:11:23Z</time>
      </trkpt>
      <trkpt lat="46.40984" lon="5.36102">
        <ele>407</ele>
        <time>2019-04-29T18:12:23Z</time>
      </trkpt>
      <trkpt lat="46.41054" lon="5.36153">
        <ele>404</ele>
        <time>2019-04-29T18:13:23Z</time>
      </trkpt>
      <trkpt lat="46.41105" lon="5.36186">
        <ele>403</ele>
        <time>2019-04-29T18:14:23Z</time>
      </trkpt>
      <trkpt lat="46.41126" lon="5.36196">
        <ele>403</ele>
        <time>2019-04-29T18:15:23Z</time>
      </trkpt>
      <trkpt lat="46.41134" lon="5.36196">
        <ele>402</ele>
        <time>2019-04-29T18:16:23Z</time>
      </trkpt>
      <trkpt lat="46.41141" lon="5.36193">
        <ele>401</ele>
        <time>2019-04-29T18:17:23Z</time>
      </trkpt>
      <trkpt lat="46.41147" lon="5.36186">
        <ele>399</ele>
        <time>2019-04-29T18:18:23Z</time>
      </trkpt>
      <trkpt lat="46.4115" lon="5.36179">
        <ele>397</ele>
        <time>2019-04-29T18:19:23Z</time>
      </trkpt>
      <trkpt lat="46.41151" lon="5.36169">
        <ele>395</ele>
        <time>2019-04-29T18:20:23Z</time>
      </trkpt>
      <trkpt lat="46.41148" lon="5.36159">
        <ele>394</ele>
        <time>2019-04-29T18:21:23Z</time>
      </trkpt>
      <trkpt lat="46.41141" lon="5.36149">
        <ele>393</ele>
        <time>2019-04-29T18:22:23Z</time>
      </trkpt>
      <trkpt lat="46.41115" lon="5.36125">
        <ele>392</ele>
        <time>2019-04-29T18:23:23Z</time>
      </trkpt>
      <trkpt lat="46.41101" lon="5.36106">
        <ele>392</ele>
        <time>2019-04-29T18:24:23Z</time>
      </trkpt>
      <trkpt lat="46.41085" lon="5.36077">
        <ele>391</ele>
        <time>2019-04-29T18:25:23Z</time>
      </trkpt>
      <trkpt lat="46.41032" lon="5.35968">
        <ele>387</ele>
        <time>2019-04-29T18:26:23Z</time>
      </trkpt>
      <trkpt lat="46.41017" lon="5.35946">
        <ele>387</ele>
        <time>2019-04-29T18:27:23Z</time>
      </trkpt>
      <trkpt lat="46.41003" lon="5.35931">
        <ele>388</ele>
        <time>2019-04-29T18:28:23Z</time>
      </trkpt>
      <trkpt lat="46.40989" lon="5.35919">
        <ele>387</ele>
        <time>2019-04-29T18:29:23Z</time>
      </trkpt>
      <trkpt lat="46.40939" lon="5.35894">
        <ele>382</ele>
        <time>2019-04-29T18:30:23Z</time>
      </trkpt>
      <trkpt lat="46.40932" lon="5.3589">
        <ele>382</ele>
        <time>2019-04-29T18:31:23Z</time>
      </trkpt>
      <trkpt lat="46.40927" lon="5.35883">
        <ele>381</ele>
        <time>2019-04-29T18:32:23Z</time>
      </trkpt>
      <trkpt lat="46.40922" lon="5.35871">
        <ele>380</ele>
        <time>2019-04-29T18:33:23Z</time>
      </trkpt>
      <trkpt lat="46.40921" lon="5.35854">
        <ele>379</ele>
        <time>2019-04-29T18:34:23Z</time>
      </trkpt>
      <trkpt lat="46.40927" lon="5.35839">
        <ele>377</ele>
        <time>2019-04-29T18:35:23Z</time>
      </trkpt>
      <trkpt lat="46.40936" lon="5.35831">
        <ele>376</ele>
        <time>2019-04-29T18:36:23Z</time>
      </trkpt>
      <trkpt lat="46.40948" lon="5.35828">
        <ele>376</ele>
        <time>2019-04-29T18:37:23Z</time>
      </trkpt>
      <trkpt lat="46.4097" lon="5.35829">
        <ele>376</ele>
        <time>2019-04-29T18:38:23Z</time>
      </trkpt>
      <trkpt lat="46.41031" lon="5.35859">
        <ele>375</ele>
        <time>2019-04-29T18:39:23Z</time>
      </trkpt>
      <trkpt lat="46.41059" lon="5.35878">
        <ele>373</ele>
        <time>2019-04-29T18:40:23Z</time>
      </trkpt>
      <trkpt lat="46.41091" lon="5.35902">
        <ele>372</ele>
        <time>2019-04-29T18:41:23Z</time>
      </trkpt>
      <trkpt lat="46.41114" lon="5.35925">
        <ele>370</ele>
        <time>2019-04-29T18:42:23Z</time>
      </trkpt>
      <trkpt lat="46.41127" lon="5.35944">
        <ele>369</ele>
        <time>2019-04-29T18:43:23Z</time>
      </trkpt>
      <trkpt lat="46.41139" lon="5.35969">
        <ele>370</ele>
        <time>2019-04-29T18:44:23Z</time>
      </trkpt>
      <trkpt lat="46.41153" lon="5.35982">
        <ele>368</ele>
        <time>2019-04-29T18:45:23Z</time>
      </trkpt>
      <trkpt lat="46.4116" lon="5.35983">
        <ele>367</ele>
        <time>2019-04-29T18:46:23Z</time>
      </trkpt>
      <trkpt lat="46.41191" lon="5.35976">
        <ele>362</ele>
        <time>2019-04-29T18:47:23Z</time>
      </trkpt>
      <trkpt lat="46.41203" lon="5.35976">
        <ele>361</ele>
        <time>2019-04-29T18:48:23Z</time>
      </trkpt>
      <trkpt lat="46.41238" lon="5.35983">
        <ele>359</ele>
        <time>2019-04-29T18:49:23Z</time>
      </trkpt>
      <trkpt lat="46.41288" lon="5.35998">
        <ele>357</ele>
        <time>2019-04-29T18:50:23Z</time>
      </trkpt>
      <trkpt lat="46.41448" lon="5.36032">
        <ele>346</ele>
        <time>2019-04-29T18:51:23Z</time>
      </trkpt>
      <trkpt lat="46.41468" lon="5.36031">
        <ele>345</ele>
        <time>2019-04-29T18:52:23Z</time>
      </trkpt>
      <trkpt lat="46.41486" lon="5.36018">
        <ele>342</ele>
        <time>2019-04-29T18:53:23Z</time>
      </trkpt>
      <trkpt lat="46.41506" lon="5.35995">
        <ele>340</ele>
        <time>2019-04-29T18:54:23Z</time>
      </trkpt>
      <trkpt lat="46.4157" lon="5.35893">
        <ele>331</ele>
        <time>2019-04-29T18:55:23Z</time>
      </trkpt>
      <trkpt lat="46.41581" lon="5.35854">
        <ele>328</ele>
        <time>2019-04-29T18:56:23Z</time>
      </trkpt>
      <trkpt lat="46.41591" lon="5.35793">
        <ele>324</ele>
        <time>2019-04-29T18:57:23Z</time>
      </trkpt>
      <trkpt lat="46.41609" lon="5.35728">
        <ele>321</ele>
        <time>2019-04-29T18:58:23Z</time>
      </trkpt>
      <trkpt lat="46.41625" lon="5.35725">
        <ele>321</ele>
        <time>2019-04-29T18:59:23Z</time>
      </trkpt>
      <trkpt lat="46.41637" lon="5.35728">
        <ele>321</ele>
        <time>2019-04-29T19:00:23Z</time>
      </trkpt>
      <trkpt lat="46.41685" lon="5.35756">
        <ele>320</ele>
        <time>2019-04-29T19:01:23Z</time>
      </trkpt>
      <trkpt lat="46.41698" lon="5.35761">
        <ele>320</ele>
        <time>2019-04-29T19:02:23Z</time>
      </trkpt>
      <trkpt lat="46.41718" lon="5.35759">
        <ele>319</ele>
        <time>2019-04-29T19:03:23Z</time>
      </trkpt>
      <trkpt lat="46.41744" lon="5.35737">
        <ele>316</ele>
        <time>2019-04-29T19:04:23Z</time>
      </trkpt>
      <trkpt lat="46.41766" lon="5.35724">
        <ele>315</ele>
        <time>2019-04-29T19:05:23Z</time>
      </trkpt>
      <trkpt lat="46.41946" lon="5.35683">
        <ele>309</ele>
        <time>2019-04-29T19:06:23Z</time>
      </trkpt>
      <trkpt lat="46.41963" lon="5.35678">
        <ele>309</ele>
        <time>2019-04-29T19:07:23Z</time>
      </trkpt>
      <trkpt lat="46.42036" lon="5.35629">
        <ele>307</ele>
        <time>2019-04-29T19:08:23Z</time>
      </trkpt>
      <trkpt lat="46.42068" lon="5.35615">
        <ele>307</ele>
        <time>2019-04-29T19:09:23Z</time>
      </trkpt>
      <trkpt lat="46.42162" lon="5.35608">
        <ele>306</ele>
        <time>2019-04-29T19:10:23Z</time>
      </trkpt>
      <trkpt lat="46.42234" lon="5.356">
        <ele>308</ele>
        <time>2019-04-29T19:11:23Z</time>
      </trkpt>
      <trkpt lat="46.42237" lon="5.35571">
        <ele>307</ele>
        <time>2019-04-29T19:12:23Z</time>
      </trkpt>
      <trkpt lat="46.42243" lon="5.3554">
        <ele>307</ele>
        <time>2019-04-29T19:13:23Z</time>
      </trkpt>
      <trkpt lat="46.42259" lon="5.3554">
        <ele>307</ele>
        <time>2019-04-29T19:14:23Z</time>
      </trkpt>
      <trkpt lat="46.42268" lon="5.35555">
        <ele>308</ele>
        <time>2019-04-29T19:15:23Z</time>
      </trkpt>
      <trkpt lat="46.42268" lon="5.35555">
        <ele>308</ele>
        <time>2019-04-29T19:16:23Z</time>
      </trkpt>
      <trkpt lat="46.42259" lon="5.3554">
        <ele>307</ele>
        <time>2019-04-29T19:17:23Z</time>
      </trkpt>
      <trkpt lat="46.42256" lon="5.3553">
        <ele>307</ele>
        <time>2019-04-29T19:18:23Z</time>
      </trkpt>
      <trkpt lat="46.42253" lon="5.35489">
        <ele>306</ele>
        <time>2019-04-29T19:19:23Z</time>
      </trkpt>
      <trkpt lat="46.42254" lon="5.35478">
        <ele>306</ele>
        <time>2019-04-29T19:20:23Z</time>
      </trkpt>
      <trkpt lat="46.42272" lon="5.35409">
        <ele>304</ele>
        <time>2019-04-29T19:21:23Z</time>
      </trkpt>
      <trkpt lat="46.4233" lon="5.35042">
        <ele>292</ele>
        <time>2019-04-29T19:22:23Z</time>
      </trkpt>
      <trkpt lat="46.42339" lon="5.34973">
        <ele>289</ele>
        <time>2019-04-29T19:23:23Z</time>
      </trkpt>
      <trkpt lat="46.4234" lon="5.34948">
        <ele>289</ele>
        <time>2019-04-29T19:24:23Z</time>
      </trkpt>
      <trkpt lat="46.42534" lon="5.34883">
        <ele>292</ele>
        <time>2019-04-29T19:25:23Z</time>
      </trkpt>
      <trkpt lat="46.43002" lon="5.34738">
        <ele>268</ele>
        <time>2019-04-29T19:26:23Z</time>
      </trkpt>
      <trkpt lat="46.43044" lon="5.34723">
        <ele>267</ele>
        <time>2019-04-29T19:27:23Z</time>
      </trkpt>
      <trkpt lat="46.43058" lon="5.34715">
        <ele>267</ele>
        <time>2019-04-29T19:28:23Z</time>
      </trkpt>
      <trkpt lat="46.43072" lon="5.34704">
        <ele>267</ele>
        <time>2019-04-29T19:29:23Z</time>
      </trkpt>
      <trkpt lat="46.43113" lon="5.34668">
        <ele>266</ele>
        <time>2019-04-29T19:30:23Z</time>
      </trkpt>
      <trkpt lat="46.43246" lon="5.34536">
        <ele>261</ele>
        <time>2019-04-29T19:31:23Z</time>
      </trkpt>
      <trkpt lat="46.43273" lon="5.34519">
        <ele>261</ele>
        <time>2019-04-29T19:32:23Z</time>
      </trkpt>
      <trkpt lat="46.43295" lon="5.34513">
        <ele>262</ele>
        <time>2019-04-29T19:33:23Z</time>
      </trkpt>
      <trkpt lat="46.43323" lon="5.34513">
        <ele>262</ele>
        <time>2019-04-29T19:34:23Z</time>
      </trkpt>
      <trkpt lat="46.43341" lon="5.34517">
        <ele>262</ele>
        <time>2019-04-29T19:35:23Z</time>
      </trkpt>
      <trkpt lat="46.43356" lon="5.34523">
        <ele>260</ele>
        <time>2019-04-29T19:36:23Z</time>
      </trkpt>
      <trkpt lat="46.43436" lon="5.3456">
        <ele>252</ele>
        <time>2019-04-29T19:37:23Z</time>
      </trkpt>
      <trkpt lat="46.43447" lon="5.34561">
        <ele>251</ele>
        <time>2019-04-29T19:38:23Z</time>
      </trkpt>
      <trkpt lat="46.43462" lon="5.34556">
        <ele>250</ele>
        <time>2019-04-29T19:39:23Z</time>
      </trkpt>
      <trkpt lat="46.43547" lon="5.34477">
        <ele>250</ele>
        <time>2019-04-29T19:40:23Z</time>
      </trkpt>
      <trkpt lat="46.43561" lon="5.34469">
        <ele>250</ele>
        <time>2019-04-29T19:41:23Z</time>
      </trkpt>
      <trkpt lat="46.43589" lon="5.34461">
        <ele>252</ele>
        <time>2019-04-29T19:42:23Z</time>
      </trkpt>
      <trkpt lat="46.43602" lon="5.34455">
        <ele>253</ele>
        <time>2019-04-29T19:43:23Z</time>
      </trkpt>
      <trkpt lat="46.43628" lon="5.34438">
        <ele>255</ele>
        <time>2019-04-29T19:44:23Z</time>
      </trkpt>
      <trkpt lat="46.43681" lon="5.34418">
        <ele>256</ele>
        <time>2019-04-29T19:45:23Z</time>
      </trkpt>
      <trkpt lat="46.43743" lon="5.34399">
        <ele>256</ele>
        <time>2019-04-29T19:46:23Z</time>
      </trkpt>
      <trkpt lat="46.43849" lon="5.34383">
        <ele>256</ele>
        <time>2019-04-29T19:47:23Z</time>
      </trkpt>
      <trkpt lat="46.4387" lon="5.34379">
        <ele>256</ele>
        <time>2019-04-29T19:48:23Z</time>
      </trkpt>
      <trkpt lat="46.43888" lon="5.34371">
        <ele>255</ele>
        <time>2019-04-29T19:49:23Z</time>
      </trkpt>
      <trkpt lat="46.43996" lon="5.34276">
        <ele>245</ele>
        <time>2019-04-29T19:50:23Z</time>
      </trkpt>
      <trkpt lat="46.43996" lon="5.34276">
        <ele>245</ele>
        <time>2019-04-29T19:51:23Z</time>
      </trkpt>
      <trkpt lat="46.44012" lon="5.34269">
        <ele>245</ele>
        <time>2019-04-29T19:52:23Z</time>
      </trkpt>
      <trkpt lat="46.44021" lon="5.34267">
        <ele>245</ele>
        <time>2019-04-29T19:53:23Z</time>
      </trkpt>
      <trkpt lat="46.44042" lon="5.3435">
        <ele>244</ele>
        <time>2019-04-29T19:54:23Z</time>
      </trkpt>
      <trkpt lat="46.44059" lon="5.34386">
        <ele>243</ele>
        <time>2019-04-29T19:55:23Z</time>
      </trkpt>
      <trkpt lat="46.44085" lon="5.34409">
        <ele>241</ele>
        <time>2019-04-29T19:56:23Z</time>
      </trkpt>
      <trkpt lat="46.44147" lon="5.34443">
        <ele>242</ele>
        <time>2019-04-29T19:57:23Z</time>
      </trkpt>
      <trkpt lat="46.44215" lon="5.34478">
        <ele>247</ele>
        <time>2019-04-29T19:58:23Z</time>
      </trkpt>
      <trkpt lat="46.44258" lon="5.34505">
        <ele>250</ele>
        <time>2019-04-29T19:59:23Z</time>
      </trkpt>
      <trkpt lat="46.44277" lon="5.34519">
        <ele>250</ele>
        <time>2019-04-29T20:00:23Z</time>
      </trkpt>
      <trkpt lat="46.44299" lon="5.3454">
        <ele>250</ele>
        <time>2019-04-29T20:01:23Z</time>
      </trkpt>
      <trkpt lat="46.44404" lon="5.34672">
        <ele>250</ele>
        <time>2019-04-29T20:02:23Z</time>
      </trkpt>
      <trkpt lat="46.44454" lon="5.34756">
        <ele>245</ele>
        <time>2019-04-29T20:03:23Z</time>
      </trkpt>
      <trkpt lat="46.44462" lon="5.34764">
        <ele>245</ele>
        <time>2019-04-29T20:04:23Z</time>
      </trkpt>
      <trkpt lat="46.44476" lon="5.34774">
        <ele>245</ele>
        <time>2019-04-29T20:05:23Z</time>
      </trkpt>
      <trkpt lat="46.44484" lon="5.34775">
        <ele>245</ele>
        <time>2019-04-29T20:06:23Z</time>
      </trkpt>
      <trkpt lat="46.44562" lon="5.34758">
        <ele>242</ele>
        <time>2019-04-29T20:07:23Z</time>
      </trkpt>
      <trkpt lat="46.44588" lon="5.3476">
        <ele>242</ele>
        <time>2019-04-29T20:08:23Z</time>
      </trkpt>
      <trkpt lat="46.44624" lon="5.3477">
        <ele>243</ele>
        <time>2019-04-29T20:09:23Z</time>
      </trkpt>
      <trkpt lat="46.44634" lon="5.34774">
        <ele>243</ele>
        <time>2019-04-29T20:10:23Z</time>
      </trkpt>
      <trkpt lat="46.44668" lon="5.348">
        <ele>246</ele>
        <time>2019-04-29T20:11:23Z</time>
      </trkpt>
      <trkpt lat="46.44749" lon="5.34884">
        <ele>245</ele>
        <time>2019-04-29T20:12:23Z</time>
      </trkpt>
      <trkpt lat="46.44772" lon="5.34903">
        <ele>245</ele>
        <time>2019-04-29T20:13:23Z</time>
      </trkpt>
      <trkpt lat="46.44785" lon="5.34911">
        <ele>244</ele>
        <time>2019-04-29T20:14:23Z</time>
      </trkpt>
      <trkpt lat="46.44797" lon="5.34914">
        <ele>244</ele>
        <time>2019-04-29T20:15:23Z</time>
      </trkpt>
      <trkpt lat="46.44868" lon="5.34917">
        <ele>242</ele>
        <time>2019-04-29T20:16:23Z</time>
      </trkpt>
      <trkpt lat="46.44903" lon="5.34912">
        <ele>241</ele>
        <time>2019-04-29T20:17:23Z</time>
      </trkpt>
      <trkpt lat="46.44925" lon="5.34913">
        <ele>240</ele>
        <time>2019-04-29T20:18:23Z</time>
      </trkpt>
      <trkpt lat="46.44951" lon="5.34919">
        <ele>240</ele>
        <time>2019-04-29T20:19:23Z</time>
      </trkpt>
      <trkpt lat="46.44977" lon="5.34929">
        <ele>241</ele>
        <time>2019-04-29T20:20:23Z</time>
      </trkpt>
      <trkpt lat="46.45" lon="5.34943">
        <ele>242</ele>
        <time>2019-04-29T20:21:23Z</time>
      </trkpt>
      <trkpt lat="46.45052" lon="5.3498">
        <ele>243</ele>
        <time>2019-04-29T20:22:23Z</time>
      </trkpt>
      <trkpt lat="46.45088" lon="5.35011">
        <ele>243</ele>
        <time>2019-04-29T20:23:23Z</time>
      </trkpt>
      <trkpt lat="46.4519" lon="5.35109">
        <ele>246</ele>
        <time>2019-04-29T20:24:23Z</time>
      </trkpt>
      <trkpt lat="46.452" lon="5.35122">
        <ele>246</ele>
        <time>2019-04-29T20:25:23Z</time>
      </trkpt>
      <trkpt lat="46.45206" lon="5.35136">
        <ele>247</ele>
        <time>2019-04-29T20:26:23Z</time>
      </trkpt>
      <trkpt lat="46.45216" lon="5.35164">
        <ele>247</ele>
        <time>2019-04-29T20:27:23Z</time>
      </trkpt>
      <trkpt lat="46.45224" lon="5.35212">
        <ele>250</ele>
        <time>2019-04-29T20:28:23Z</time>
      </trkpt>
      <trkpt lat="46.45224" lon="5.35212">
        <ele>250</ele>
        <time>2019-04-29T20:29:23Z</time>
      </trkpt>
      <trkpt lat="46.45228" lon="5.35236">
        <ele>252</ele>
        <time>2019-04-29T20:30:23Z</time>
      </trkpt>
      <trkpt lat="46.45233" lon="5.35245">
        <ele>252</ele>
        <time>2019-04-29T20:31:23Z</time>
      </trkpt>
      <trkpt lat="46.45245" lon="5.35258">
        <ele>250</ele>
        <time>2019-04-29T20:32:23Z</time>
      </trkpt>
      <trkpt lat="46.45294" lon="5.35293">
        <ele>246</ele>
        <time>2019-04-29T20:33:23Z</time>
      </trkpt>
      <trkpt lat="46.45306" lon="5.35305">
        <ele>245</ele>
        <time>2019-04-29T20:34:23Z</time>
      </trkpt>
      <trkpt lat="46.45314" lon="5.35317">
        <ele>244</ele>
        <time>2019-04-29T20:35:23Z</time>
      </trkpt>
      <trkpt lat="46.45323" lon="5.35333">
        <ele>244</ele>
        <time>2019-04-29T20:36:23Z</time>
      </trkpt>
      <trkpt lat="46.45348" lon="5.35395">
        <ele>244</ele>
        <time>2019-04-29T20:37:23Z</time>
      </trkpt>
      <trkpt lat="46.45356" lon="5.35411">
        <ele>244</ele>
        <time>2019-04-29T20:38:23Z</time>
      </trkpt>
      <trkpt lat="46.45373" lon="5.35429">
        <ele>243</ele>
        <time>2019-04-29T20:39:23Z</time>
      </trkpt>
      <trkpt lat="46.45395" lon="5.3544">
        <ele>241</ele>
        <time>2019-04-29T20:40:23Z</time>
      </trkpt>
      <trkpt lat="46.45406" lon="5.35454">
        <ele>240</ele>
        <time>2019-04-29T20:41:23Z</time>
      </trkpt>
      <trkpt lat="46.45414" lon="5.35473">
        <ele>239</ele>
        <time>2019-04-29T20:42:23Z</time>
      </trkpt>
      <trkpt lat="46.45445" lon="5.35603">
        <ele>243</ele>
        <time>2019-04-29T20:43:23Z</time>
      </trkpt>
      <trkpt lat="46.45449" lon="5.35613">
        <ele>244</ele>
        <time>2019-04-29T20:44:23Z</time>
      </trkpt>
      <trkpt lat="46.45458" lon="5.35622">
        <ele>244</ele>
        <time>2019-04-29T20:45:23Z</time>
      </trkpt>
      <trkpt lat="46.4547" lon="5.35619">
        <ele>243</ele>
        <time>2019-04-29T20:46:23Z</time>
      </trkpt>
      <trkpt lat="46.45509" lon="5.35623">
        <ele>243</ele>
        <time>2019-04-29T20:47:23Z</time>
      </trkpt>
      <trkpt lat="46.45525" lon="5.35627">
        <ele>243</ele>
        <time>2019-04-29T20:48:23Z</time>
      </trkpt>
      <trkpt lat="46.4554" lon="5.35634">
        <ele>244</ele>
        <time>2019-04-29T20:49:23Z</time>
      </trkpt>
      <trkpt lat="46.45547" lon="5.35615">
        <ele>244</ele>
        <time>2019-04-29T20:50:23Z</time>
      </trkpt>
      <trkpt lat="46.45551" lon="5.35612">
        <ele>244</ele>
        <time>2019-04-29T20:51:23Z</time>
      </trkpt>
      <trkpt lat="46.45588" lon="5.35622">
        <ele>245</ele>
        <time>2019-04-29T20:52:23Z</time>
      </trkpt>
      <trkpt lat="46.45602" lon="5.35629">
        <ele>247</ele>
        <time>2019-04-29T20:53:23Z</time>
      </trkpt>
      <trkpt lat="46.45622" lon="5.3556">
        <ele>247</ele>
        <time>2019-04-29T20:54:23Z</time>
      </trkpt>
      <trkpt lat="46.45631" lon="5.35521">
        <ele>247</ele>
        <time>2019-04-29T20:55:23Z</time>
      </trkpt>
      <trkpt lat="46.45647" lon="5.35512">
        <ele>248</ele>
        <time>2019-04-29T20:56:23Z</time>
      </trkpt>
      <trkpt lat="46.45665" lon="5.35513">
        <ele>249</ele>
        <time>2019-04-29T20:57:23Z</time>
      </trkpt>
      <trkpt lat="46.4572" lon="5.35523">
        <ele>255</ele>
        <time>2019-04-29T20:58:23Z</time>
      </trkpt>
      <trkpt lat="46.45742" lon="5.3552">
        <ele>257</ele>
        <time>2019-04-29T20:59:23Z</time>
      </trkpt>
      <trkpt lat="46.45758" lon="5.35508">
        <ele>258</ele>
        <time>2019-04-29T21:00:23Z</time>
      </trkpt>
      <trkpt lat="46.45783" lon="5.35509">
        <ele>260</ele>
        <time>2019-04-29T21:01:23Z</time>
      </trkpt>
      <trkpt lat="46.45788" lon="5.35516">
        <ele>261</ele>
        <time>2019-04-29T21:02:23Z</time>
      </trkpt>
      <trkpt lat="46.4579" lon="5.3553">
        <ele>262</ele>
        <time>2019-04-29T21:03:23Z</time>
      </trkpt>
      <trkpt lat="46.45795" lon="5.35537">
        <ele>263</ele>
        <time>2019-04-29T21:04:23Z</time>
      </trkpt>
      <trkpt lat="46.45802" lon="5.35544">
        <ele>264</ele>
        <time>2019-04-29T21:05:23Z</time>
      </trkpt>
      <trkpt lat="46.45906" lon="5.3557">
        <ele>266</ele>
        <time>2019-04-29T21:06:23Z</time>
      </trkpt>
      <trkpt lat="46.45905" lon="5.35541">
        <ele>266</ele>
        <time>2019-04-29T21:07:23Z</time>
      </trkpt>
      <trkpt lat="46.45911" lon="5.35512">
        <ele>265</ele>
        <time>2019-04-29T21:08:23Z</time>
      </trkpt>
      <trkpt lat="46.45943" lon="5.35532">
        <ele>264</ele>
        <time>2019-04-29T21:09:23Z</time>
      </trkpt>
      <trkpt lat="46.46061" lon="5.35629">
        <ele>256</ele>
        <time>2019-04-29T21:10:23Z</time>
      </trkpt>
      <trkpt lat="46.4613" lon="5.3568">
        <ele>254</ele>
        <time>2019-04-29T21:11:23Z</time>
      </trkpt>
      <trkpt lat="46.4617" lon="5.35709">
        <ele>255</ele>
      </trkpt>
      <trkpt lat="46.46202" lon="5.35728">
        <ele>258</ele>
      </trkpt>
      <trkpt lat="46.46221" lon="5.35737">
        <ele>260</ele>
      </trkpt>
      <trkpt lat="46.46252" lon="5.35746">
        <ele>264</ele>
      </trkpt>
      <trkpt lat="46.46488" lon="5.35771">
        <ele>268</ele>
      </trkpt>
      <trkpt lat="46.4653" lon="5.35783">
        <ele>266</ele>
      </trkpt>
      <trkpt lat="46.46635" lon="5.35831">
        <ele>263</ele>
      </trkpt>
      <trkpt lat="46.46919" lon="5.35952">
        <ele>273</ele>
      </trkpt>
      <trkpt lat="46.46956" lon="5.35981">
        <ele>274</ele>
      </trkpt>
      <trkpt lat="46.46958" lon="5.3599">
        <ele>275</ele>
      </trkpt>
      <trkpt lat="46.46962" lon="5.35997">
        <ele>275</ele>
      </trkpt>
      <trkpt lat="46.46968" lon="5.36001">
        <ele>275</ele>
      </trkpt>
      <trkpt lat="46.46974" lon="5.36002">
        <ele>275</ele>
      </trkpt>
      <trkpt lat="46.46981" lon="5.35999">
        <ele>274</ele>
      </trkpt>
      <trkpt lat="46.46986" lon="5.35994">
        <ele>274</ele>
      </trkpt>
      <trkpt lat="46.46994" lon="5.35992">
        <ele>273</ele>
      </trkpt>
      <trkpt lat="46.47025" lon="5.35999">
        <ele>272</ele>
      </trkpt>
      <trkpt lat="46.47518" lon="5.36216">
        <ele>280</ele>
      </trkpt>
      <trkpt lat="46.47579" lon="5.36238">
        <ele>281</ele>
      </trkpt>
      <trkpt lat="46.47747" lon="5.36288">
        <ele>270</ele>
      </trkpt>
      <trkpt lat="46.47802" lon="5.36308">
        <ele>268</ele>
      </trkpt>
      <trkpt lat="46.47839" lon="5.36326">
        <ele>267</ele>
      </trkpt>
      <trkpt lat="46.47889" lon="5.36377">
        <ele>262</ele>
      </trkpt>
      <trkpt lat="46.47901" lon="5.36396">
        <ele>261</ele>
      </trkpt>
      <trkpt lat="46.47913" lon="5.36419">
        <ele>259</ele>
      </trkpt>
      <trkpt lat="46.47925" lon="5.36449">
        <ele>257</ele>
      </trkpt>
      <trkpt lat="46.47955" lon="5.36545">
        <ele>251</ele>
      </trkpt>
      <trkpt lat="46.47964" lon="5.36565">
        <ele>250</ele>
      </trkpt>
      <trkpt lat="46.47974" lon="5.36581">
        <ele>249</ele>
      </trkpt>
      <trkpt lat="46.48003" lon="5.36617">
        <ele>247</ele>
      </trkpt>
      <trkpt lat="46.48021" lon="5.36634">
        <ele>247</ele>
      </trkpt>
      <trkpt lat="46.48099" lon="5.36692">
        <ele>248</ele>
      </trkpt>
      <trkpt lat="46.48177" lon="5.3676">
        <ele>251</ele>
      </trkpt>
      <trkpt lat="46.4824" lon="5.3681">
        <ele>254</ele>
      </trkpt>
      <trkpt lat="46.4826" lon="5.36829">
        <ele>256</ele>
      </trkpt>
      <trkpt lat="46.48271" lon="5.36845">
        <ele>257</ele>
      </trkpt>
      <trkpt lat="46.48282" lon="5.36866">
        <ele>259</ele>
      </trkpt>
      <trkpt lat="46.48289" lon="5.36884">
        <ele>260</ele>
      </trkpt>
      <trkpt lat="46.48292" lon="5.36899">
        <ele>260</ele>
      </trkpt>
      <trkpt lat="46.48295" lon="5.36916">
        <ele>261</ele>
      </trkpt>
      <trkpt lat="46.48297" lon="5.36998">
        <ele>264.7</ele>
      </trkpt>
      <trkpt lat="46.48298" lon="5.37035">
        <ele>267</ele>
      </trkpt>
      <trkpt lat="46.48295" lon="5.37066">
        <ele>267.6</ele>
      </trkpt>
      <trkpt lat="46.48349" lon="5.37045">
        <ele>262</ele>
      </trkpt>
      <trkpt lat="46.4836" lon="5.3704">
        <ele>262</ele>
      </trkpt>
      <trkpt lat="46.48384" lon="5.37017">
        <ele>262</ele>
      </trkpt>
      <trkpt lat="46.48406" lon="5.37005">
        <ele>261</ele>
      </trkpt>
      <trkpt lat="46.48419" lon="5.37006">
        <ele>260</ele>
      </trkpt>
      <trkpt lat="46.48434" lon="5.37018">
        <ele>258.8</ele>
      </trkpt>
      <trkpt lat="46.48466" lon="5.3705">
        <ele>258</ele>
      </trkpt>
      <trkpt lat="46.48499" lon="5.37088">
        <ele>255</ele>
      </trkpt>
      <trkpt lat="46.48565" lon="5.37166">
        <ele>253</ele>
      </trkpt>
      <trkpt lat="46.48713" lon="5.37357">
        <ele>252</ele>
      </trkpt>
      <trkpt lat="46.48832" lon="5.37521">
        <ele>252</ele>
      </trkpt>
      <trkpt lat="46.48846" lon="5.37554">
        <ele>250</ele>
      </trkpt>
      <trkpt lat="46.48855" lon="5.37583">
        <ele>251</ele>
      </trkpt>
      <trkpt lat="46.48859" lon="5.37607">
        <ele>252</ele>
      </trkpt>
      <trkpt lat="46.48865" lon="5.37627">
        <ele>252</ele>
      </trkpt>
      <trkpt lat="46.4888" lon="5.3763">
        <ele>251.3</ele>
      </trkpt>
      <trkpt lat="46.4889" lon="5.37627">
        <ele>251</ele>
      </trkpt>
      <trkpt lat="46.48923" lon="5.37724">
        <ele>247</ele>
      </trkpt>
      <trkpt lat="46.48966" lon="5.37867">
        <ele>249.1</ele>
      </trkpt>
      <trkpt lat="46.49016" lon="5.38028">
        <ele>251</ele>
      </trkpt>
      <trkpt lat="46.49068" lon="5.38198">
        <ele>257</ele>
      </trkpt>
      <trkpt lat="46.49131" lon="5.38399">
        <ele>263</ele>
      </trkpt>
      <trkpt lat="46.49162" lon="5.38505">
        <ele>269</ele>
      </trkpt>
      <trkpt lat="46.49188" lon="5.38588">
        <ele>273</ele>
      </trkpt>
      <trkpt lat="46.49194" lon="5.38598">
        <ele>273</ele>
      </trkpt>
      <trkpt lat="46.49207" lon="5.3861">
        <ele>274</ele>
      </trkpt>
      <trkpt lat="46.49207" lon="5.38638">
        <ele>274</ele>
      </trkpt>
      <trkpt lat="46.49211" lon="5.38665">
        <ele>275</ele>
      </trkpt>
      <trkpt lat="46.49223" lon="5.38693">
        <ele>277</ele>
      </trkpt>
      <trkpt lat="46.49241" lon="5.38706">
        <ele>277</ele>
      </trkpt>
      <trkpt lat="46.49266" lon="5.38721">
        <ele>279</ele>
      </trkpt>
      <trkpt lat="46.49332" lon="5.38743">
        <ele>280</ele>
      </trkpt>
      <trkpt lat="46.49399" lon="5.38764">
        <ele>281</ele>
      </trkpt>
      <trkpt lat="46.49535" lon="5.38792">
        <ele>278.8</ele>
      </trkpt>
    </trkseg>
  </trk>
</gpx>